PC7345 / TC-NBF 7700 Squawk Report (9th of September, 2020)

Aircraft A20N Reg No. TC-NBF Age 3 years old
Model A320 Jet engines 2 First flight 18-11-16
Registered 06-12-16 Rollout 11-16 Delivered 06-12-16
Construction No. 7321 Line No. N/A Series 251N(SL)
ADSHEX 4BB846 Airline name Pegasus Airlines Owner N/A
Airfield based Istanbul-Sabiha Gokcen~Istanbul~TC First tracked N/A
Time Lat Lon Altitude Heading Speed Vertical Rate
2020-09-09 06:24:49 GMT 40.908463 29.321686 0 334 0 0
2020-09-09 06:24:37 GMT 40.908466 29.321697 0 334 0 0
2020-09-09 06:24:26 GMT 40.908360 29.321762 0 334 6 0
2020-09-09 06:24:16 GMT 40.908081 29.321932 0 334 7 0
2020-09-09 06:24:06 GMT 40.907745 29.322136 0 326 9 0
2020-09-09 06:23:55 GMT 40.907421 29.322601 0 329 11 0
2020-09-09 06:23:45 GMT 40.906895 29.322947 0 334 13 0
2020-09-09 06:23:35 GMT 40.906368 29.323288 0 340 14 0
2020-09-09 06:23:24 GMT 40.905811 29.323229 0 61 11 0
2020-09-09 06:23:06 GMT 40.905087 29.321198 0 61 25 0
2020-09-09 06:23:01 GMT 40.904858 29.320602 0 64 25 0
2020-09-09 06:22:37 GMT 40.903782 29.317703 0 64 19 0
2020-09-09 06:22:32 GMT 40.903603 29.317204 0 64 18 0
2020-09-09 06:22:23 GMT 40.903290 29.316330 0 64 16 0
2020-09-09 06:22:11 GMT 40.902946 29.315369 0 67 14 0
2020-09-09 06:22:02 GMT 40.902672 29.314728 0 39 14 0
2020-09-09 06:21:51 GMT 40.902145 29.314194 0 33 14 0
2020-09-09 06:21:41 GMT 40.901573 29.313690 0 33 18 0
2020-09-09 06:21:31 GMT 40.900852 29.313049 0 33 22 0
2020-09-09 06:21:20 GMT 40.899887 29.312038 0 45 24 0
2020-09-09 06:21:07 GMT 40.898884 29.310089 0 61 39 0
2020-09-09 06:20:59 GMT 40.898224 29.308277 0 64 46 0
2020-09-09 06:20:47 GMT 40.897003 29.304937 75 64 66 0
2020-09-09 06:20:38 GMT 40.895691 29.301392 75 64 110 64
2020-09-09 06:20:27 GMT 40.893265 29.294678 100 64 110 -512
2020-09-09 06:20:17 GMT 40.891113 29.289062 200 64 113 -768
2020-09-09 06:20:07 GMT 40.888832 29.282684 325 63 113 -576
2020-09-09 06:19:57 GMT 40.886353 29.276001 425 64 116 -768
2020-09-09 06:19:50 GMT 40.884781 29.271698 525 64 114 -576
2020-09-09 06:19:46 GMT 40.884037 29.269699 550 64 112 -384
2020-09-09 06:19:41 GMT 40.882553 29.265564 600 64 109 -640
2020-09-09 06:19:35 GMT 40.881477 29.262585 650 64 108 -768
2020-09-09 06:19:32 GMT 40.880814 29.260803 700 64 108 -768
2020-09-09 06:19:26 GMT 40.879520 29.257215 800 64 107 -640
2020-09-09 06:19:21 GMT 40.878387 29.254211 825 64 107 -640
2020-09-09 06:19:15 GMT 40.876915 29.250162 875 64 108 -576
2020-09-09 06:19:11 GMT 40.875984 29.247728 925 64 108 -640
2020-09-09 06:19:04 GMT 40.874634 29.243982 975 63 109 -640
2020-09-09 06:19:00 GMT 40.873810 29.241699 1,025 63 109 -768
2020-09-09 06:18:53 GMT 40.872391 29.237915 1,100 64 110 -640
2020-09-09 06:18:50 GMT 40.871559 29.235680 1,150 63 109 -640
2020-09-09 06:18:43 GMT 40.870102 29.231628 1,200 64 108 -576
2020-09-09 06:18:40 GMT 40.869507 29.229980 1,250 64 107 -704
2020-09-09 06:18:34 GMT 40.867905 29.225586 1,325 63 109 -576
2020-09-09 06:18:30 GMT 40.867126 29.223572 1,350 62 110 -832
2020-09-09 06:18:24 GMT 40.865845 29.220215 1,450 63 109 -640
2020-09-09 06:18:20 GMT 40.864952 29.217829 1,475 64 110 -512
2020-09-09 06:18:12 GMT 40.863235 29.213135 1,550 63 110 -640
2020-09-09 06:18:07 GMT 40.861973 29.209837 1,600 64 112 -640
2020-09-09 06:18:02 GMT 40.860992 29.207027 1,625 64 116 -640
2020-09-09 06:17:53 GMT 40.858612 29.200500 1,775 63 126 -448
2020-09-09 06:17:50 GMT 40.857780 29.198290 1,825 63 129 -704
2020-09-09 06:17:42 GMT 40.855873 29.193233 1,900 63 131 -640
2020-09-09 06:17:32 GMT 40.853172 29.185930 2,050 64 136 -896
2020-09-09 06:17:27 GMT 40.851730 29.181997 2,125 64 142 -896
2020-09-09 06:17:21 GMT 40.850239 29.177940 2,200 63 143 -896
2020-09-09 06:17:17 GMT 40.848953 29.174500 2,250 63 144 -768
2020-09-09 06:17:11 GMT 40.846939 29.169128 2,350 63 146 -704
2020-09-09 06:17:07 GMT 40.845818 29.166142 2,375 63 147 -960
2020-09-09 06:17:01 GMT 40.843815 29.160961 2,500 63 148 -1088
2020-09-09 06:16:57 GMT 40.842911 29.158508 2,550 63 149 -1152
2020-09-09 06:16:51 GMT 40.840988 29.153259 2,675 64 148 -960
2020-09-09 06:16:48 GMT 40.840046 29.150661 2,700 64 150 -832
2020-09-09 06:16:38 GMT 40.836739 29.141298 2,775 65 159 -192
2020-09-09 06:16:30 GMT 40.834671 29.135437 2,800 65 159 -384
2020-09-09 06:16:27 GMT 40.833755 29.132812 2,825 65 157 -448
2020-09-09 06:16:19 GMT 40.831421 29.125061 2,925 77 160 -1152
2020-09-09 06:16:16 GMT 40.831062 29.123009 2,975 79 160 -1152
2020-09-09 06:16:09 GMT 40.830826 29.114014 3,100 99 165 -896
2020-09-09 06:15:57 GMT 40.832737 29.103533 3,275 104 167 -960
2020-09-09 06:15:47 GMT 40.834625 29.093994 3,425 104 172 -576
2020-09-09 06:15:36 GMT 40.836880 29.082558 3,500 104 175 -640
2020-09-09 06:15:28 GMT 40.838509 29.074444 3,575 104 179 -448
2020-09-09 06:15:25 GMT 40.839020 29.071716 3,600 104 180 -384
2020-09-09 06:15:16 GMT 40.842453 29.054993 3,775 105 192 -896
2020-09-09 06:15:06 GMT 40.843414 29.050232 3,800 105 195 -896
2020-09-09 06:14:58 GMT 40.845306 29.041172 3,950 105 202 -1088
2020-09-09 06:14:55 GMT 40.845978 29.038025 4,000 105 204 -1152
2020-09-09 06:14:48 GMT 40.848221 29.027283 4,175 105 210 -1024
2020-09-09 06:14:45 GMT 40.848633 29.025391 4,200 105 213 -960
2020-09-09 06:14:36 GMT 40.851334 29.012390 4,375 105 221 -1024
2020-09-09 06:14:25 GMT 40.854057 28.999474 4,500 105 231 -896
2020-09-09 06:14:19 GMT 40.856247 28.989050 4,625 105 241 -704
2020-09-09 06:14:15 GMT 40.857101 28.985046 4,650 105 241 -704
2020-09-09 06:14:05 GMT 40.860077 28.970520 4,750 104 249 -384
2020-09-09 06:13:55 GMT 40.863098 28.955322 4,775 104 252 0
2020-09-09 06:13:44 GMT 40.866116 28.940172 4,775 104 251 0
2020-09-09 06:13:34 GMT 40.869186 28.924692 4,775 104 247 0
2020-09-09 06:13:24 GMT 40.872074 28.910149 4,825 104 247 -704
2020-09-09 06:13:13 GMT 40.875053 28.894979 5,075 104 247 -1728
2020-09-09 06:13:08 GMT 40.876785 28.886108 5,250 104 246 -896
2020-09-09 06:13:04 GMT 40.878124 28.879374 5,350 104 246 -1216
2020-09-09 06:12:53 GMT 40.880905 28.865234 5,450 104 245 -320
2020-09-09 06:12:43 GMT 40.883804 28.850597 5,500 104 240 -320
2020-09-09 06:12:33 GMT 40.886738 28.836241 5,575 105 238 -512
2020-09-09 06:12:30 GMT 40.887901 28.830622 5,600 105 243 -576
2020-09-09 06:12:22 GMT 40.889786 28.821289 5,675 104 246 -768
2020-09-09 06:12:19 GMT 40.890610 28.817139 5,700 104 247 -1024
2020-09-09 06:12:12 GMT 40.892761 28.806335 5,825 104 250 -960
2020-09-09 06:12:01 GMT 40.895920 28.790710 6,000 104 253 -896
2020-09-09 06:11:57 GMT 40.897156 28.784485 6,050 104 254 -960
2020-09-09 06:11:49 GMT 40.899765 28.771179 6,200 104 255 -1088
2020-09-09 06:11:39 GMT 40.902649 28.756714 6,375 104 259 -1088
2020-09-09 06:11:31 GMT 40.905125 28.744167 6,525 104 263 -1088
2020-09-09 06:11:28 GMT 40.905807 28.740601 6,575 104 264 -1152
2020-09-09 06:11:21 GMT 40.908142 28.728516 6,750 104 269 -1280
2020-09-09 06:11:09 GMT 40.912216 28.707397 7,075 104 270 -1984
2020-09-09 06:11:01 GMT 40.914505 28.695557 7,350 104 269 -1984
2020-09-09 06:10:58 GMT 40.915192 28.692078 7,400 104 269 -1984
2020-09-09 06:10:50 GMT 40.917801 28.678772 7,675 104 269 -1792
2020-09-09 06:10:47 GMT 40.918488 28.675316 7,750 104 269 -1728
2020-09-09 06:10:40 GMT 40.920906 28.663204 7,975 104 272 -1408
2020-09-09 06:10:37 GMT 40.921932 28.658274 8,000 105 272 -1536
2020-09-09 06:10:30 GMT 40.924259 28.647163 8,250 108 273 -2048
2020-09-09 06:10:27 GMT 40.925282 28.642981 8,250 108 273 -2048
2020-09-09 06:10:20 GMT 40.928822 28.631308 8,600 116 275 -1728
2020-09-09 06:10:16 GMT 40.930962 28.625565 8,825 117 276 -1536
2020-09-09 06:10:09 GMT 40.935478 28.614391 8,825 118 279 -1472
2020-09-09 06:09:57 GMT 40.945953 28.588673 9,250 118 281 -1536
2020-09-09 06:09:46 GMT 40.949024 28.581057 9,375 118 281 -1600
2020-09-09 06:09:41 GMT 40.952469 28.572693 9,500 118 280 -1088
2020-09-09 06:09:35 GMT 40.956161 28.563660 9,575 118 280 -704
2020-09-09 06:09:30 GMT 40.958984 28.556713 9,625 118 280 -384
2020-09-09 06:09:25 GMT 40.962341 28.548523 9,650 118 282 -384
2020-09-09 06:09:20 GMT 40.965130 28.541731 9,700 118 286 -448
2020-09-09 06:09:15 GMT 40.968948 28.532368 9,750 118 289 -576
2020-09-09 06:09:11 GMT 40.971680 28.525635 9,775 118 293 -512
2020-09-09 06:09:07 GMT 40.975525 28.516296 9,825 118 298 -576
2020-09-09 06:08:59 GMT 40.978821 28.508240 9,875 118 302 -640
2020-09-09 06:08:54 GMT 40.982449 28.499472 9,950 118 306 -704
2020-09-09 06:08:50 GMT 40.985706 28.491482 10,000 118 311 -832
2020-09-09 06:08:46 GMT 40.987850 28.486300 10,050 118 314 -832
2020-09-09 06:08:43 GMT 40.989803 28.481430 10,100 118 315 -896
2020-09-09 06:08:38 GMT 40.993011 28.473694 10,175 118 315 -960
2020-09-09 06:08:34 GMT 40.996582 28.464905 10,250 118 316 -960
2020-09-09 06:08:28 GMT 41.000061 28.456360 10,325 118 317 -1024
2020-09-09 06:08:23 GMT 41.003723 28.447350 10,425 118 319 -1024
2020-09-09 06:08:18 GMT 41.007248 28.438599 10,500 118 320 -1024
2020-09-09 06:08:15 GMT 41.009354 28.433472 10,550 118 320 -1024
2020-09-09 06:08:12 GMT 41.011032 28.429247 10,600 118 320 -1024
2020-09-09 06:08:07 GMT 41.014847 28.419861 10,700 117 321 -1024
2020-09-09 06:08:02 GMT 41.018017 28.411955 10,775 117 321 -1024
2020-09-09 06:07:58 GMT 41.021576 28.403137 10,850 118 322 -960
2020-09-09 06:07:53 GMT 41.025192 28.394165 10,925 118 322 -960
2020-09-09 06:07:47 GMT 41.029049 28.384615 11,025 118 322 -896
2020-09-09 06:07:42 GMT 41.032307 28.376623 11,100 118 322 -896
2020-09-09 06:07:36 GMT 41.036541 28.366262 11,175 118 322 -896
2020-09-09 06:07:32 GMT 41.039474 28.358959 11,200 118 323 -896
2020-09-09 06:07:26 GMT 41.043526 28.349033 11,325 118 324 -896
2020-09-09 06:07:22 GMT 41.046707 28.341248 11,400 118 325 -960
2020-09-09 06:07:16 GMT 41.051579 28.329308 11,500 118 327 -960
2020-09-09 06:07:12 GMT 41.054279 28.322567 11,550 118 329 -960
2020-09-09 06:07:06 GMT 41.058098 28.313204 11,650 118 331 -960
2020-09-09 06:07:01 GMT 41.063915 28.298845 11,775 118 333 -1024
2020-09-09 06:06:56 GMT 41.065453 28.295038 11,825 118 333 -1024
2020-09-09 06:06:46 GMT 41.073120 28.276184 12,000 118 336 -1024
2020-09-09 06:06:38 GMT 41.078903 28.261892 12,125 118 337 -960
2020-09-09 06:06:34 GMT 41.081467 28.255526 12,175 118 337 -1024
2020-09-09 06:06:27 GMT 41.086353 28.243416 12,275 118 338 -896
2020-09-09 06:06:24 GMT 41.088448 28.238234 12,325 118 339 -896
2020-09-09 06:06:17 GMT 41.093994 28.224487 12,450 118 339 -1024
2020-09-09 06:06:14 GMT 41.097061 28.216948 12,525 118 339 -1024
2020-09-09 06:06:04 GMT 41.103951 28.199968 12,675 118 338 -1024
2020-09-09 06:05:57 GMT 41.109100 28.187195 12,800 118 338 -1024
2020-09-09 06:05:52 GMT 41.112350 28.179260 12,875 118 336 -1024
2020-09-09 06:05:44 GMT 41.118847 28.163202 13,025 118 334 -960
2020-09-09 06:05:33 GMT 41.126312 28.144775 13,175 118 334 -896
2020-09-09 06:05:25 GMT 41.132393 28.129744 13,300 118 334 -960
2020-09-09 06:05:22 GMT 41.134022 28.125687 13,350 118 334 -960
2020-09-09 06:05:15 GMT 41.140167 28.110518 13,475 118 336 -960
2020-09-09 06:05:12 GMT 41.142029 28.105774 13,525 118 337 -960
2020-09-09 06:05:02 GMT 41.150116 28.085754 13,700 118 340 -1024
2020-09-09 06:04:54 GMT 41.155064 28.073502 13,825 118 341 -1088
2020-09-09 06:04:50 GMT 41.158218 28.065674 13,900 118 341 -1152
2020-09-09 06:04:41 GMT 41.165165 28.048470 14,075 118 342 -1088
2020-09-09 06:04:33 GMT 41.170395 28.035583 14,200 118 344 -1024
2020-09-09 06:04:30 GMT 41.173080 28.028870 14,250 118 344 -960
2020-09-09 06:04:22 GMT 41.179180 28.013763 14,375 117 344 -960
2020-09-09 06:04:19 GMT 41.181335 28.008362 14,425 117 344 -960
2020-09-09 06:04:12 GMT 41.186768 27.994787 14,550 117 342 -960
2020-09-09 06:04:09 GMT 41.189484 27.987976 14,600 117 341 -960
2020-09-09 06:03:59 GMT 41.195984 27.971628 14,750 117 340 -960
2020-09-09 06:03:49 GMT 41.203674 27.952576 14,925 117 342 -832
2020-09-09 06:03:38 GMT 41.211731 27.932373 15,000 117 343 -128
2020-09-09 06:03:28 GMT 41.219421 27.913147 15,000 117 343 0
2020-09-09 06:03:21 GMT 41.225079 27.899031 15,000 117 341 0
2020-09-09 06:03:18 GMT 41.226803 27.894787 15,000 117 341 0
2020-09-09 06:03:08 GMT 41.234158 27.876371 15,000 117 340 0
2020-09-09 06:02:58 GMT 41.242302 27.856085 15,000 117 340 0
2020-09-09 06:02:49 GMT 41.247620 27.842896 15,000 117 340 0
2020-09-09 06:02:46 GMT 41.250000 27.836914 15,000 117 340 0
2020-09-09 06:02:40 GMT 41.255154 27.823936 15,000 117 341 0
2020-09-09 06:02:37 GMT 41.256920 27.819506 15,000 117 341 0
2020-09-09 06:02:27 GMT 41.264465 27.800598 15,000 117 341 0
2020-09-09 06:02:17 GMT 41.272614 27.780151 15,000 117 340 0
2020-09-09 06:02:08 GMT 41.278152 27.766235 15,000 117 339 0
2020-09-09 06:02:03 GMT 41.281593 27.757582 15,000 117 340 0
2020-09-09 06:01:54 GMT 41.288132 27.741028 15,000 117 340 0
2020-09-09 06:01:49 GMT 41.292534 27.729992 15,000 117 340 0
2020-09-09 06:01:38 GMT 41.300217 27.710754 15,000 117 340 0
2020-09-09 06:01:35 GMT 41.304173 27.700840 15,000 117 341 0
2020-09-09 06:01:24 GMT 41.310268 27.685484 15,000 117 341 0
2020-09-09 06:01:20 GMT 41.313492 27.677429 15,000 117 341 0
2020-09-09 06:01:17 GMT 41.315231 27.673035 15,000 117 341 0
2020-09-09 06:01:08 GMT 41.322838 27.654024 15,000 117 341 0
2020-09-09 06:00:53 GMT 41.333313 27.627682 15,000 117 341 0
2020-09-09 06:00:45 GMT 41.339363 27.612450 15,000 117 341 0
2020-09-09 06:00:35 GMT 41.346222 27.595093 15,000 117 341 0
2020-09-09 06:00:25 GMT 41.354820 27.573437 15,000 117 342 0
2020-09-09 06:00:16 GMT 41.360825 27.558167 15,000 117 343 0
2020-09-09 06:00:05 GMT 41.368275 27.539228 15,000 117 343 0
2020-09-09 05:59:55 GMT 41.375931 27.519897 15,000 117 344 0
2020-09-09 05:59:49 GMT 41.380283 27.508829 15,000 117 344 0
2020-09-09 05:59:45 GMT 41.384262 27.498779 15,000 117 344 0
2020-09-09 05:59:39 GMT 41.388840 27.487043 15,000 117 345 0
2020-09-09 05:59:33 GMT 41.392273 27.478367 15,000 117 346 0
2020-09-09 05:59:25 GMT 41.398579 27.462307 15,000 117 347 0
2020-09-09 05:59:19 GMT 41.402908 27.451258 15,000 117 347 0
2020-09-09 05:59:14 GMT 41.406075 27.443274 15,000 117 347 0
2020-09-09 05:59:10 GMT 41.409939 27.433372 15,000 117 345 0
2020-09-09 05:59:04 GMT 41.413788 27.423559 15,000 117 345 0
2020-09-09 05:58:59 GMT 41.417816 27.413198 15,000 117 345 0
2020-09-09 05:58:54 GMT 41.421856 27.402777 15,000 117 345 0
2020-09-09 05:58:49 GMT 41.425049 27.394533 15,000 117 346 64
2020-09-09 05:58:38 GMT 41.432648 27.374996 15,000 117 346 0
2020-09-09 05:58:33 GMT 41.436813 27.364197 15,000 117 346 0
2020-09-09 05:58:29 GMT 41.440010 27.355892 15,000 117 346 0
2020-09-09 05:58:23 GMT 41.444668 27.344269 15,000 120 347 0
2020-09-09 05:58:18 GMT 41.448296 27.336220 15,000 122 348 0
2020-09-09 05:58:05 GMT 41.460167 27.313992 15,000 126 349 -64
2020-09-09 05:58:00 GMT 41.464783 27.306082 15,000 127 349 0
2020-09-09 05:57:57 GMT 41.467850 27.300776 15,000 127 349 0
2020-09-09 05:57:52 GMT 41.473389 27.291252 15,000 127 349 0
2020-09-09 05:57:48 GMT 41.478230 27.282949 15,000 127 349 0
2020-09-09 05:57:42 GMT 41.483322 27.274120 15,000 127 349 0
2020-09-09 05:57:37 GMT 41.488148 27.265831 15,000 127 349 0
2020-09-09 05:57:32 GMT 41.493713 27.256269 15,000 127 349 0
2020-09-09 05:57:26 GMT 41.498657 27.247593 15,000 127 349 0
2020-09-09 05:57:21 GMT 41.503414 27.239388 15,000 127 350 0
2020-09-09 05:57:11 GMT 41.513611 27.221695 15,000 127 350 0
2020-09-09 05:57:04 GMT 41.521133 27.208639 15,000 127 350 0
2020-09-09 05:57:01 GMT 41.524597 27.202597 15,000 127 351 0
2020-09-09 05:56:54 GMT 41.530518 27.192411 15,000 127 351 0
2020-09-09 05:56:50 GMT 41.534187 27.186052 15,000 127 351 0
2020-09-09 05:56:28 GMT 41.555973 27.148239 15,025 127 350 -320
2020-09-09 05:56:19 GMT 41.564621 27.133234 15,075 127 351 -768
2020-09-09 05:56:10 GMT 41.575241 27.114820 15,250 127 353 -960
2020-09-09 05:55:54 GMT 41.596436 27.078239 15,600 127 357 -960
2020-09-09 05:55:46 GMT 41.598129 27.075306 15,625 127 357 -960
2020-09-09 05:55:39 GMT 41.605316 27.062883 15,750 127 358 -1024
2020-09-09 05:55:28 GMT 41.615978 27.044315 15,925 127 358 -1088
2020-09-09 05:55:18 GMT 41.626545 27.025984 16,125 127 359 -1024
2020-09-09 05:55:07 GMT 41.637764 27.006502 16,300 127 359 -960
2020-09-09 05:54:58 GMT 41.646652 26.991035 16,425 127 359 -960
2020-09-09 05:54:47 GMT 41.667755 26.954332 16,900 127 360 -896
2020-09-09 05:54:38 GMT 41.667755 26.954332 16,750 127 360 -896
2020-09-09 05:54:26 GMT 41.679569 26.933750 16,950 127 363 -960
2020-09-09 05:54:20 GMT 41.685013 26.924183 17,025 127 367 -1024
2020-09-09 05:54:17 GMT 41.688320 26.918484 17,075 127 365 -1024
2020-09-09 05:54:10 GMT 41.695675 26.905581 17,200 127 367 -1024
2020-09-09 05:54:06 GMT 41.698837 26.900087 17,250 127 368 -1024
2020-09-09 05:54:03 GMT 41.704006 26.891018 17,350 127 370 -960
2020-09-09 05:53:52 GMT 41.713879 26.873772 17,500 127 371 -960
2020-09-09 05:53:46 GMT 41.720306 26.862572 17,600 127 372 -960
2020-09-09 05:53:43 GMT 41.723785 26.856516 17,650 127 372 -960
2020-09-09 05:53:36 GMT 41.731018 26.843843 17,750 127 372 -896
2020-09-09 05:53:31 GMT 41.735870 26.835356 17,825 127 372 -896
2020-09-09 05:53:25 GMT 41.741856 26.824909 17,900 127 372 -896
2020-09-09 05:53:22 GMT 41.744980 26.819374 17,950 127 372 -960
2020-09-09 05:53:16 GMT 41.752167 26.806828 18,050 127 372 -960
2020-09-09 05:53:12 GMT 41.755692 26.800648 18,125 127 372 -1024
2020-09-09 05:53:08 GMT 41.760910 26.791534 18,200 127 373 -1024
2020-09-09 05:53:05 GMT 41.762924 26.787975 18,225 127 373 -1024
2020-09-09 05:53:02 GMT 41.766724 26.781361 18,300 127 373 -1024
2020-09-09 05:52:55 GMT 41.773697 26.769148 18,425 127 374 -1088
2020-09-09 05:52:52 GMT 41.777344 26.762758 18,475 127 375 -1088
2020-09-09 05:52:44 GMT 41.784729 26.749857 18,600 127 376 -1024
2020-09-09 05:52:41 GMT 41.788082 26.743916 18,650 127 376 -1024
2020-09-09 05:52:34 GMT 41.795517 26.730923 18,775 127 376 -960
2020-09-09 05:52:31 GMT 41.798630 26.725492 18,825 127 376 -896
2020-09-09 05:52:24 GMT 41.806610 26.711468 18,925 127 374 -832
2020-09-09 05:52:21 GMT 41.809387 26.706577 18,950 127 374 -832
2020-09-09 05:52:13 GMT 41.817215 26.692844 19,075 127 374 -896
2020-09-09 05:52:09 GMT 41.821926 26.684641 19,150 127 376 -960
2020-09-09 05:52:04 GMT 41.827652 26.674549 19,250 127 376 -1024
2020-09-09 05:52:01 GMT 41.831001 26.668673 19,275 127 378 -1024
2020-09-09 05:51:58 GMT 41.832962 26.665192 19,325 127 380 -1024
2020-09-09 05:51:51 GMT 41.841751 26.649712 19,450 127 383 -1024
2020-09-09 05:51:44 GMT 41.849579 26.635979 19,600 127 383 -1088
2020-09-09 05:51:41 GMT 41.852604 26.630669 19,625 127 383 -1088
2020-09-09 05:51:30 GMT 41.863541 26.611383 19,825 127 384 -1024
2020-09-09 05:51:23 GMT 41.871132 26.597963 19,950 127 383 -1024
2020-09-09 05:51:20 GMT 41.874763 26.591513 20,000 127 383 -1024
2020-09-09 05:51:17 GMT 41.877460 26.586786 20,050 127 383 -960
2020-09-09 05:51:12 GMT 41.883095 26.576757 20,125 127 383 -960
2020-09-09 05:51:08 GMT 41.887192 26.569475 20,150 126 382 -960
2020-09-09 05:51:03 GMT 41.893337 26.558554 20,275 126 382 -896
2020-09-09 05:50:59 GMT 41.897049 26.551895 20,500 126 384 -832
2020-09-09 05:50:51 GMT 41.905209 26.537476 20,425 127 387 -896
2020-09-09 05:50:47 GMT 41.909409 26.530109 20,500 130 390 -960
2020-09-09 05:50:42 GMT 41.915588 26.520309 20,625 132 394 -1088
2020-09-09 05:50:37 GMT 41.921082 26.512257 20,675 135 399 -1088
2020-09-09 05:50:30 GMT 41.930191 26.500334 20,800 138 406 -1088
2020-09-09 05:50:27 GMT 41.934357 26.495403 20,850 138 409 -1088
2020-09-09 05:50:19 GMT 41.948273 26.479237 20,975 139 416 -576
2020-09-09 05:50:10 GMT 41.959991 26.465628 21,000 139 416 0
2020-09-09 05:50:06 GMT 41.965446 26.459230 21,000 138 416 0
2020-09-09 05:49:58 GMT 41.976974 26.445841 21,000 138 416 0
2020-09-09 05:49:55 GMT 41.981369 26.440722 21,000 139 416 0
2020-09-09 05:49:49 GMT 41.989609 26.431108 21,000 138 417 0
2020-09-09 05:49:46 GMT 41.994965 26.424929 21,000 138 417 0
2020-09-09 05:49:38 GMT 42.007065 26.410812 21,000 139 419 0
2020-09-09 05:49:35 GMT 42.010483 26.406826 21,000 139 419 0
2020-09-09 05:49:27 GMT 42.023209 26.392033 21,000 138 420 0
2020-09-09 05:49:24 GMT 42.027008 26.387600 21,000 139 421 0
2020-09-09 05:49:17 GMT 42.037228 26.375683 21,000 139 421 0
2020-09-09 05:49:07 GMT 42.052094 26.358324 21,000 138 420 0
2020-09-09 05:48:56 GMT 42.068512 26.339148 21,000 138 420 0
2020-09-09 05:48:47 GMT 42.081573 26.323866 21,000 138 419 0
2020-09-09 05:48:38 GMT 42.094536 26.308680 21,000 138 419 0
2020-09-09 05:48:35 GMT 42.100586 26.301588 21,000 138 418 0
2020-09-09 05:48:27 GMT 42.111572 26.288815 21,000 138 419 0
2020-09-09 05:48:15 GMT 42.128906 26.268435 21,000 138 420 0
2020-09-09 05:48:08 GMT 42.137650 26.258198 21,000 138 420 0
2020-09-09 05:48:04 GMT 42.145370 26.249147 21,000 138 420 0
2020-09-09 05:47:57 GMT 42.155518 26.237268 21,000 138 422 0
2020-09-09 05:47:54 GMT 42.159058 26.233116 21,000 138 422 -64
2020-09-09 05:47:44 GMT 42.174232 26.215296 21,000 138 423 0
2020-09-09 05:47:35 GMT 42.186859 26.200396 21,000 138 423 0
2020-09-09 05:47:32 GMT 42.192249 26.194090 21,000 138 423 0
2020-09-09 05:47:23 GMT 42.205399 26.178610 21,000 138 423 0
2020-09-09 05:47:15 GMT 42.216923 26.165091 21,000 138 422 0
2020-09-09 05:47:02 GMT 42.235199 26.143591 21,000 138 422 0
2020-09-09 05:46:54 GMT 42.246994 26.129704 21,000 138 422 0
2020-09-09 05:46:47 GMT 42.257263 26.117622 21,000 138 422 0
2020-09-09 05:46:44 GMT 42.262356 26.111565 21,000 138 423 -64
2020-09-09 05:46:40 GMT 42.267563 26.105452 21,000 138 423 -64
2020-09-09 05:46:34 GMT 42.276672 26.094713 21,025 138 423 -256
2020-09-09 05:46:30 GMT 42.282028 26.088409 21,050 138 423 -384
2020-09-09 05:46:23 GMT 42.292236 26.076363 21,100 138 425 -896
2020-09-09 05:46:20 GMT 42.296852 26.070875 21,175 138 425 -960
2020-09-09 05:46:13 GMT 42.307510 26.058292 21,275 138 426 -960
2020-09-09 05:46:10 GMT 42.312447 26.052481 21,325 138 426 -1024
2020-09-09 05:46:03 GMT 42.322594 26.040472 21,450 138 426 -1024
2020-09-09 05:45:58 GMT 42.329178 26.032728 21,525 138 428 -1024
2020-09-09 05:45:53 GMT 42.337692 26.022615 21,600 138 428 -1088
2020-09-09 05:45:49 GMT 42.343124 26.016264 21,675 138 428 -1088
2020-09-09 05:45:42 GMT 42.353348 26.004202 21,800 138 428 -1088
2020-09-09 05:45:39 GMT 42.357555 25.999208 21,850 138 428 -1088
2020-09-09 05:45:32 GMT 42.369095 25.985537 22,000 138 428 -1088
2020-09-09 05:45:29 GMT 42.372684 25.981325 22,050 138 426 -1088
2020-09-09 05:45:20 GMT 42.387451 25.963940 22,275 138 425 -1024
2020-09-09 05:45:15 GMT 42.393402 25.956861 22,275 138 425 -1024
2020-09-09 05:45:11 GMT 42.399902 25.949144 22,350 138 423 -1024
2020-09-09 05:45:07 GMT 42.405365 25.942745 22,425 138 423 -1024
2020-09-09 05:45:01 GMT 42.414722 25.931631 22,525 138 423 -960
2020-09-09 05:44:58 GMT 42.418350 25.927361 22,575 138 423 -960
2020-09-09 05:44:50 GMT 42.430130 25.913427 22,700 138 423 -960
2020-09-09 05:44:40 GMT 42.444748 25.896053 22,825 138 423 -896
2020-09-09 05:44:30 GMT 42.460098 25.877796 23,000 138 422 -960
2020-09-09 05:44:27 GMT 42.465137 25.871717 23,200 138 424 -960
2020-09-09 05:44:20 GMT 42.474541 25.860538 23,150 138 424 -1024
2020-09-09 05:44:15 GMT 42.482361 25.851276 23,275 138 425 -1088
2020-09-09 05:44:10 GMT 42.489624 25.842590 23,350 138 427 -1024
2020-09-09 05:44:07 GMT 42.494419 25.836842 23,400 138 428 -1024
2020-09-09 05:44:00 GMT 42.503998 25.825361 23,525 138 430 -960
2020-09-09 05:43:57 GMT 42.508392 25.820118 23,550 138 430 -960
2020-09-09 05:43:50 GMT 42.518810 25.807652 23,700 138 430 -960
2020-09-09 05:43:47 GMT 42.523819 25.801704 23,725 138 430 -960
2020-09-09 05:43:40 GMT 42.534760 25.788656 23,825 138 432 -896
2020-09-09 05:43:36 GMT 42.540710 25.781542 23,900 138 432 -896
2020-09-09 05:43:30 GMT 42.549866 25.770617 24,000 138 432 -896
2020-09-09 05:43:27 GMT 42.555496 25.763899 24,050 138 432 -960
2020-09-09 05:43:18 GMT 42.567738 25.749334 24,175 138 434 -960
2020-09-09 05:43:15 GMT 42.571655 25.744650 24,225 138 434 -960
2020-09-09 05:43:09 GMT 42.585983 25.727547 24,350 138 437 -1024
2020-09-09 05:43:06 GMT 42.585983 25.727547 24,375 138 439 -1024
2020-09-09 05:42:59 GMT 42.596191 25.715374 24,475 138 440 -1024
2020-09-09 05:42:56 GMT 42.602966 25.707258 24,550 138 442 -1024
2020-09-09 05:42:48 GMT 42.612198 25.696192 24,675 138 443 -1024
2020-09-09 05:42:45 GMT 42.617065 25.690342 24,775 138 443 -960
2020-09-09 05:42:37 GMT 42.635376 25.668369 24,925 138 443 -1024
2020-09-09 05:42:29 GMT 42.642967 25.659271 25,000 138 443 -1024
2020-09-09 05:42:24 GMT 42.650463 25.650267 25,075 138 444 -1024
2020-09-09 05:42:16 GMT 42.661102 25.637533 25,200 138 446 -1024
2020-09-09 05:42:13 GMT 42.667007 25.630354 25,275 138 446 -960
2020-09-09 05:42:08 GMT 42.675064 25.620680 25,350 138 447 -960
2020-09-09 05:42:04 GMT 42.681290 25.613188 25,400 138 448 -896
2020-09-09 05:41:56 GMT 42.693336 25.598719 25,525 138 449 -896
2020-09-09 05:41:53 GMT 42.697037 25.594212 25,550 138 450 -896
2020-09-09 05:41:48 GMT 42.705963 25.583475 25,650 138 451 -896
2020-09-09 05:41:44 GMT 42.711723 25.576555 25,675 138 451 -896
2020-09-09 05:41:41 GMT 42.715916 25.571508 25,725 138 453 -896
2020-09-09 05:41:37 GMT 42.722897 25.563078 25,825 138 453 -960
2020-09-09 05:41:33 GMT 42.729126 25.555573 25,875 138 453 -960
2020-09-09 05:41:25 GMT 42.741806 25.540340 26,000 138 453 -960
2020-09-09 05:41:22 GMT 42.746548 25.534590 26,050 138 453 -960
2020-09-09 05:41:17 GMT 42.754086 25.525520 26,125 138 454 -960
2020-09-09 05:41:12 GMT 42.763550 25.514187 26,250 138 454 -1024
2020-09-09 05:41:04 GMT 42.773758 25.501888 26,350 138 454 -1024
2020-09-09 05:41:01 GMT 42.778610 25.496021 26,450 138 456 -1024
2020-09-09 05:40:57 GMT 42.785000 25.488281 26,500 138 456 -1024
2020-09-09 05:40:54 GMT 42.789932 25.482405 26,525 138 456 -1024
2020-09-09 05:40:50 GMT 42.796124 25.474932 26,600 138 457 -1024
2020-09-09 05:40:46 GMT 42.803528 25.465988 26,625 138 458 -1024
2020-09-09 05:40:41 GMT 42.810699 25.457302 26,750 138 458 -1024
2020-09-09 05:40:37 GMT 42.816700 25.450090 26,875 138 460 -1024
2020-09-09 05:40:34 GMT 42.821541 25.444204 26,875 138 460 -1024
2020-09-09 05:40:31 GMT 42.827362 25.437181 26,925 138 460 -1024
2020-09-09 05:40:27 GMT 42.832352 25.431177 27,000 138 460 -1088
2020-09-09 05:40:23 GMT 42.838852 25.423321 27,075 138 460 -1088
2020-09-09 05:40:19 GMT 42.845284 25.415497 27,150 138 460 -1152
2020-09-09 05:40:13 GMT 42.855713 25.402876 27,275 138 459 -1216
2020-09-09 05:40:10 GMT 42.859818 25.397900 27,300 138 458 -1216
2020-09-09 05:40:05 GMT 42.868561 25.387312 27,425 138 457 -1152
2020-09-09 05:40:01 GMT 42.876102 25.378157 27,525 138 455 -1088
2020-09-09 05:39:55 GMT 42.887787 25.364046 27,625 138 451 -1024
2020-09-09 05:39:52 GMT 42.887787 25.364046 27,650 138 449 -960
2020-09-09 05:39:49 GMT 42.893047 25.357689 27,700 138 449 -960
2020-09-09 05:39:46 GMT 42.896942 25.352932 27,800 138 442 -960
2020-09-09 05:39:43 GMT 42.902527 25.346226 27,800 138 442 -960
2020-09-09 05:39:40 GMT 42.907562 25.340094 27,850 138 440 -1024
2020-09-09 05:39:34 GMT 42.916122 25.329746 27,950 138 440 -960
2020-09-09 05:39:29 GMT 42.924980 25.319038 28,025 138 439 -832
2020-09-09 05:39:26 GMT 42.928207 25.315056 28,075 138 439 -832
2020-09-09 05:39:21 GMT 42.939743 25.301067 28,175 138 440 -1024
2020-09-09 05:39:12 GMT 42.949234 25.289612 28,275 138 439 -960
2020-09-09 05:39:08 GMT 42.955101 25.282484 28,350 138 440 -1024
2020-09-09 05:39:03 GMT 42.963730 25.272003 28,450 138 440 -1024
2020-09-09 05:39:00 GMT 42.966785 25.268293 28,475 138 440 -1024
2020-09-09 05:38:57 GMT 42.973766 25.259792 28,550 138 441 -1024
2020-09-09 05:38:54 GMT 42.976746 25.256195 28,575 138 441 -1024
2020-09-09 05:38:51 GMT 42.982006 25.249786 28,650 138 441 -1024
2020-09-09 05:38:48 GMT 42.986481 25.244284 28,725 138 441 -1024
2020-09-09 05:38:41 GMT 42.997009 25.231443 28,850 138 442 -1024
2020-09-09 05:38:38 GMT 43.001541 25.225887 28,850 138 442 -1024
2020-09-09 05:38:33 GMT 43.009415 25.216242 28,950 138 441 -960
2020-09-09 05:38:28 GMT 43.016174 25.207933 28,975 138 441 -960
2020-09-09 05:38:25 GMT 43.021530 25.201393 29,075 138 441 -960
2020-09-09 05:38:21 GMT 43.027222 25.194525 29,150 138 441 -960
2020-09-09 05:38:18 GMT 43.032806 25.187626 29,200 138 441 -960
2020-09-09 05:38:13 GMT 43.038616 25.180532 29,250 138 441 -960
2020-09-09 05:38:09 GMT 43.044621 25.173208 29,300 138 441 -960
2020-09-09 05:38:05 GMT 43.050949 25.165491 29,375 138 441 -960
2020-09-09 05:38:01 GMT 43.058853 25.155752 29,475 138 441 -1024
2020-09-09 05:37:56 GMT 43.065399 25.147770 29,550 138 441 -1024
2020-09-09 05:37:50 GMT 43.073639 25.137676 29,625 138 443 -1024
2020-09-09 05:37:47 GMT 43.080093 25.129757 29,725 138 444 -1024
2020-09-09 05:37:44 GMT 43.082977 25.126257 29,725 138 444 -1024
2020-09-09 05:37:40 GMT 43.089615 25.118195 29,800 138 446 -1024
2020-09-09 05:37:36 GMT 43.097458 25.108534 29,900 138 447 -1024
2020-09-09 05:37:31 GMT 43.103832 25.100752 29,975 138 448 -960
2020-09-09 05:37:28 GMT 43.107513 25.096224 29,975 138 448 -960
2020-09-09 05:37:25 GMT 43.113007 25.089453 30,075 138 450 -960
2020-09-09 05:37:18 GMT 43.122757 25.077444 30,200 137 452 -960
2020-09-09 05:37:15 GMT 43.128708 25.070162 30,225 137 452 -960
2020-09-09 05:37:11 GMT 43.136261 25.060900 30,325 137 452 -960
2020-09-09 05:37:08 GMT 43.138412 25.058218 30,325 137 452 -960
2020-09-09 05:37:05 GMT 43.145645 25.049274 30,400 137 452 -960
2020-09-09 05:37:00 GMT 43.156036 25.036501 30,475 137 451 -960
2020-09-09 05:36:57 GMT 43.156036 25.036501 30,500 137 451 -960
2020-09-09 05:36:54 GMT 43.160751 25.030687 30,550 137 451 -960
2020-09-09 05:36:49 GMT 43.168076 25.021555 30,625 137 451 -960
2020-09-09 05:36:46 GMT 43.172150 25.016573 30,675 137 451 -960
2020-09-09 05:36:43 GMT 43.177155 25.010376 30,750 137 450 -960
2020-09-09 05:36:40 GMT 43.181950 25.004490 30,825 137 450 -960
2020-09-09 05:36:37 GMT 43.187069 24.998146 30,825 137 450 -960
2020-09-09 05:36:34 GMT 43.193356 24.990364 30,900 137 450 -960
2020-09-09 05:36:29 GMT 43.198975 24.983421 30,950 137 450 -960
2020-09-09 05:36:26 GMT 43.203690 24.977613 30,975 137 450 -960
2020-09-09 05:36:22 GMT 43.209927 24.969961 31,075 137 450 -896
2020-09-09 05:36:18 GMT 43.216461 24.961897 31,125 137 450 -896
2020-09-09 05:36:12 GMT 43.225479 24.950718 31,225 137 450 -960
2020-09-09 05:36:07 GMT 43.233391 24.940928 31,275 137 451 -896
2020-09-09 05:36:03 GMT 43.240768 24.931810 31,375 137 451 -960
2020-09-09 05:35:57 GMT 43.248520 24.922157 31,450 137 451 -960
2020-09-09 05:35:54 GMT 43.252987 24.916664 31,500 137 451 -960
2020-09-09 05:35:51 GMT 43.257339 24.911306 31,550 137 451 -960
2020-09-09 05:35:46 GMT 43.266068 24.900448 31,625 137 451 -960
2020-09-09 05:35:42 GMT 43.272629 24.892338 31,725 137 451 -960
2020-09-09 05:35:37 GMT 43.279289 24.884098 31,750 137 451 -960
2020-09-09 05:35:32 GMT 43.288879 24.872261 31,875 138 451 -960
2020-09-09 05:35:29 GMT 43.293999 24.866051 31,900 138 451 -960
2020-09-09 05:35:26 GMT 43.296513 24.862976 31,925 138 451 -960
2020-09-09 05:35:21 GMT 43.304535 24.853119 32,000 138 451 -960
2020-09-09 05:35:17 GMT 43.310669 24.845646 32,075 138 451 -960
2020-09-09 05:35:11 GMT 43.320766 24.833418 32,200 138 451 -960
2020-09-09 05:35:06 GMT 43.327560 24.825077 32,250 138 451 -960
2020-09-09 05:35:01 GMT 43.337200 24.813473 32,350 138 451 -960
2020-09-09 05:34:56 GMT 43.344044 24.805101 32,400 138 451 -960
2020-09-09 05:34:50 GMT 43.352783 24.794481 32,525 138 451 -960
2020-09-09 05:34:46 GMT 43.359547 24.786137 32,575 137 451 -960
2020-09-09 05:34:41 GMT 43.367157 24.776726 32,675 137 451 -960
2020-09-09 05:34:38 GMT 43.372787 24.769634 32,700 137 451 -960
2020-09-09 05:34:29 GMT 43.384499 24.754812 32,850 137 452 -896
2020-09-09 05:34:25 GMT 43.391621 24.745789 32,900 136 451 -896
2020-09-09 05:34:18 GMT 43.406330 24.726498 32,975 135 451 -896
2020-09-09 05:34:15 GMT 43.406330 24.726498 33,025 134 451 -896
2020-09-09 05:34:10 GMT 43.413265 24.716492 33,150 130 449 -896
2020-09-09 05:34:07 GMT 43.418015 24.708971 33,175 128 449 -896
2020-09-09 05:33:58 GMT 43.429230 24.688515 33,275 125 448 -960
2020-09-09 05:33:55 GMT 43.432587 24.681440 33,350 121 446 -960
2020-09-09 05:33:49 GMT 43.439896 24.664110 33,475 117 446 -960
2020-09-09 05:33:46 GMT 43.442459 24.657024 33,500 114 445 -960
2020-09-09 05:33:39 GMT 43.447128 24.642780 33,600 110 444 -960
2020-09-09 05:33:36 GMT 43.450554 24.630367 33,675 108 443 -960
2020-09-09 05:33:28 GMT 43.454865 24.611099 33,750 104 440 -896
2020-09-09 05:33:25 GMT 43.458939 24.582867 33,950 99 438 -896
2020-09-09 05:33:18 GMT 43.458939 24.582867 33,925 97 437 -896
2020-09-09 05:33:14 GMT 43.459679 24.574717 34,050 95 437 -896
2020-09-09 05:33:08 GMT 43.460632 24.548311 34,100 90 435 -960
2020-09-09 05:33:05 GMT 43.460632 24.548311 34,125 88 435 -960
2020-09-09 05:32:57 GMT 43.459854 24.526915 34,250 83 433 -896
2020-09-09 05:32:54 GMT 43.459263 24.519588 34,300 82 433 -896
2020-09-09 05:32:48 GMT 43.455536 24.491926 34,425 76 433 -832
2020-09-09 05:32:45 GMT 43.455536 24.491926 34,425 75 432 -832
2020-09-09 05:32:37 GMT 43.451580 24.473354 34,550 71 433 -896
2020-09-09 05:32:34 GMT 43.449600 24.465658 34,550 69 432 -896
2020-09-09 05:32:27 GMT 43.444611 24.449306 34,700 64 432 -960
2020-09-09 05:32:24 GMT 43.441383 24.440329 34,750 62 432 -1024
2020-09-09 05:32:17 GMT 43.435101 24.425028 34,900 56 429 -1024
2020-09-09 05:32:14 GMT 43.431152 24.416731 34,900 56 429 -1024
2020-09-09 05:32:06 GMT 43.421135 24.398346 35,050 49 428 -960
2020-09-09 05:32:03 GMT 43.418518 24.394056 35,075 48 428 -960
2020-09-09 05:31:58 GMT 43.411469 24.383644 35,175 44 427 -960
2020-09-09 05:31:54 GMT 43.404003 24.373888 35,250 41 426 -896
2020-09-09 05:31:46 GMT 43.393391 24.361790 35,375 35 425 -960
2020-09-09 05:31:43 GMT 43.388596 24.357016 35,375 35 425 -960
2020-09-09 05:31:36 GMT 43.371231 24.342237 35,550 28 423 -960
2020-09-09 05:31:32 GMT 43.371231 24.342237 35,575 28 423 -960
2020-09-09 05:31:28 GMT 43.363403 24.336824 35,650 23 422 -1024
2020-09-09 05:31:25 GMT 43.358940 24.334063 35,725 21 422 -1024
2020-09-09 05:31:22 GMT 43.353516 24.331013 35,750 21 421 -1024
2020-09-09 05:31:15 GMT 43.340786 24.324907 35,875 15 421 -960
2020-09-09 05:31:12 GMT 43.334686 24.322618 35,900 13 421 -960
2020-09-09 05:31:05 GMT 43.321606 24.318695 36,025 6 420 -832
2020-09-09 05:31:02 GMT 43.315834 24.317453 36,025 6 420 -832
2020-09-09 05:30:57 GMT 43.305080 24.315948 36,125 2 420 -832
2020-09-09 05:30:53 GMT 43.296112 24.315428 36,200 0 420 -960
2020-09-09 05:30:45 GMT 43.282150 24.316002 36,325 356 421 -1152
2020-09-09 05:30:42 GMT 43.276588 24.316668 36,400 354 421 -1728
2020-09-09 05:30:32 GMT 43.257175 24.321312 36,800 346 420 -2944
2020-09-09 05:30:24 GMT 43.241722 24.327522 37,300 340 418 -2944
2020-09-09 05:30:21 GMT 43.237717 24.329552 37,350 339 419 -2752
2020-09-09 05:30:14 GMT 43.224079 24.337528 37,700 333 421 -1792
2020-09-09 05:30:11 GMT 43.219841 24.340406 37,700 333 421 -1792
2020-09-09 05:30:03 GMT 43.205750 24.351452 37,925 327 425 -1024
2020-09-09 05:30:00 GMT 43.200336 24.356428 37,950 326 425 -960
2020-09-09 05:29:51 GMT 43.186001 24.371534 38,025 321 429 -256
2020-09-09 05:29:48 GMT 43.182789 24.375393 38,025 319 431 -128
2020-09-09 05:29:43 GMT 43.174530 24.386263 38,025 314 433 64
2020-09-09 05:29:40 GMT 43.171101 24.391153 38,025 312 434 64
2020-09-09 05:29:31 GMT 43.158096 24.412899 38,000 306 437 0
2020-09-09 05:29:23 GMT 43.150040 24.429379 38,025 302 439 -64
2020-09-09 05:29:20 GMT 43.147110 24.436085 38,025 300 440 -64
2020-09-09 05:29:13 GMT 43.140610 24.452362 38,025 298 440 0
2020-09-09 05:29:09 GMT 43.136810 24.462210 38,025 298 440 -64
2020-09-09 05:29:00 GMT 43.126923 24.487696 38,025 298 440 -64
2020-09-09 05:28:53 GMT 43.121338 24.502068 38,025 298 440 0
2020-09-09 05:28:49 GMT 43.117035 24.513182 38,025 298 440 0
2020-09-09 05:28:41 GMT 43.110073 24.531033 38,025 299 439 0
2020-09-09 05:28:38 GMT 43.107231 24.538357 38,025 299 439 0
2020-09-09 05:28:30 GMT 43.098808 24.559937 38,025 299 439 0
2020-09-09 05:28:27 GMT 43.096992 24.564581 38,025 299 439 0
2020-09-09 05:28:19 GMT 43.088005 24.587467 38,025 299 439 0
2020-09-09 05:28:16 GMT 43.085678 24.593407 38,025 299 439 0
2020-09-09 05:28:10 GMT 43.079041 24.610332 38,025 299 439 0
2020-09-09 05:28:07 GMT 43.077019 24.615587 38,025 299 439 64
2020-09-09 05:27:59 GMT 43.069386 24.635075 38,025 298 439 64
2020-09-09 05:27:56 GMT 43.066593 24.642138 38,025 298 439 64
2020-09-09 05:27:51 GMT 43.061146 24.656132 38,025 299 439 64
2020-09-09 05:27:46 GMT 43.057655 24.665026 38,025 299 439 64
2020-09-09 05:27:38 GMT 43.050110 24.684427 38,000 299 438 0
2020-09-09 05:27:35 GMT 43.047226 24.691708 38,025 299 438 0
2020-09-09 05:27:30 GMT 43.041779 24.705702 38,000 299 438 0
2020-09-09 05:27:26 GMT 43.037823 24.715773 38,000 299 438 64
2020-09-09 05:27:17 GMT 43.028465 24.739708 38,000 299 438 64
2020-09-09 05:27:08 GMT 43.020538 24.759926 38,000 299 438 0
2020-09-09 05:27:05 GMT 43.018524 24.764973 38,000 299 438 0
2020-09-09 05:26:59 GMT 43.012802 24.779535 38,000 299 438 0
2020-09-09 05:26:56 GMT 43.009007 24.789211 38,000 299 437 0
2020-09-09 05:26:48 GMT 43.001633 24.807959 38,000 299 437 0
2020-09-09 05:26:45 GMT 42.998859 24.814976 38,000 299 437 -64
2020-09-09 05:26:37 GMT 42.991459 24.833679 38,000 299 436 0
2020-09-09 05:26:34 GMT 42.988060 24.842312 38,000 299 436 64
2020-09-09 05:26:28 GMT 42.982178 24.857141 38,000 299 436 0
2020-09-09 05:26:24 GMT 42.979259 24.864611 38,000 299 436 0
2020-09-09 05:26:19 GMT 42.973812 24.878475 38,000 299 436 0
2020-09-09 05:26:15 GMT 42.969315 24.889910 37,975 299 436 0
2020-09-09 05:26:07 GMT 42.962410 24.907446 37,975 299 436 0
2020-09-09 05:26:04 GMT 42.959335 24.915203 37,975 299 436 0
2020-09-09 05:25:59 GMT 42.954681 24.927128 37,975 299 436 64
2020-09-09 05:25:55 GMT 42.951794 24.934452 37,975 299 436 64
2020-09-09 05:25:52 GMT 42.948395 24.942989 37,975 299 436 64
2020-09-09 05:25:47 GMT 42.942997 24.956818 37,975 299 436 64
2020-09-09 05:25:44 GMT 42.939598 24.965384 37,950 299 437 0
2020-09-09 05:25:37 GMT 42.933563 24.980612 37,950 299 436 0
2020-09-09 05:25:34 GMT 42.930405 24.988594 37,950 299 436 0
2020-09-09 05:25:31 GMT 42.927887 24.994919 37,950 299 436 0
2020-09-09 05:25:25 GMT 42.922302 25.009035 37,950 299 435 0
2020-09-09 05:25:22 GMT 42.919907 25.015083 37,950 299 435 0
2020-09-09 05:25:19 GMT 42.915855 25.025154 37,950 299 435 0
2020-09-09 05:25:16 GMT 42.913971 25.029985 37,950 299 435 64
2020-09-09 05:25:13 GMT 42.909943 25.040001 37,950 299 435 0
2020-09-09 05:25:05 GMT 42.903076 25.057323 37,950 299 434 -128
2020-09-09 05:25:02 GMT 42.900146 25.064669 37,950 299 434 -128
2020-09-09 05:24:58 GMT 42.896484 25.073931 37,950 299 434 64
2020-09-09 05:24:54 GMT 42.890076 25.090027 37,950 299 434 128
2020-09-09 05:24:48 GMT 42.887100 25.097500 37,950 299 434 0
2020-09-09 05:24:44 GMT 42.883759 25.105995 37,950 299 435 0
2020-09-09 05:24:41 GMT 42.880756 25.113504 37,950 299 435 0
2020-09-09 05:24:37 GMT 42.876751 25.123705 37,950 299 435 0
2020-09-09 05:24:34 GMT 42.873634 25.131422 37,950 299 436 -64
2020-09-09 05:24:31 GMT 42.870529 25.139275 37,975 299 436 0
2020-09-09 05:24:28 GMT 42.867580 25.146725 37,950 299 436 0
2020-09-09 05:24:25 GMT 42.864761 25.153772 37,975 299 436 -64
2020-09-09 05:24:21 GMT 42.861343 25.162483 37,975 299 436 -64
2020-09-09 05:24:17 GMT 42.857941 25.171019 37,975 299 436 0
2020-09-09 05:24:14 GMT 42.851196 25.187923 37,975 299 436 0
2020-09-09 05:24:11 GMT 42.851196 25.187923 37,975 299 436 0
2020-09-09 05:24:08 GMT 42.848217 25.195442 37,975 299 436 0
2020-09-09 05:24:03 GMT 42.840958 25.213751 37,975 299 436 0
2020-09-09 05:23:57 GMT 42.838581 25.219639 37,975 299 436 0
2020-09-09 05:23:53 GMT 42.834435 25.229973 37,975 299 436 0
2020-09-09 05:23:50 GMT 42.831692 25.236904 37,975 299 436 0
2020-09-09 05:23:47 GMT 42.828918 25.243835 37,975 299 436 64
2020-09-09 05:23:41 GMT 42.821960 25.261400 37,975 299 437 128
2020-09-09 05:23:37 GMT 42.818756 25.269321 37,975 299 438 0
2020-09-09 05:23:34 GMT 42.815872 25.276539 37,975 299 438 -64
2020-09-09 05:23:30 GMT 42.811161 25.288368 37,975 299 438 0
2020-09-09 05:23:27 GMT 42.809204 25.293142 37,975 299 439 0
2020-09-09 05:23:23 GMT 42.805294 25.302919 37,975 299 438 0
2020-09-09 05:23:20 GMT 42.802414 25.310127 37,975 299 438 0
2020-09-09 05:23:17 GMT 42.799149 25.318249 37,975 299 438 0
2020-09-09 05:23:12 GMT 42.794540 25.329666 37,975 299 438 -64
2020-09-09 05:23:09 GMT 42.792213 25.335495 37,975 299 439 0
2020-09-09 05:23:06 GMT 42.789001 25.343479 37,975 299 439 -64
2020-09-09 05:22:59 GMT 42.781815 25.361439 37,975 299 439 -128
2020-09-09 05:22:56 GMT 42.778946 25.368517 37,975 299 439 -64
2020-09-09 05:22:52 GMT 42.775688 25.376694 37,975 299 439 -64
2020-09-09 05:22:49 GMT 42.772102 25.385635 38,000 299 439 -64
2020-09-09 05:22:46 GMT 42.769592 25.391901 38,000 299 439 -128
2020-09-09 05:22:41 GMT 42.764469 25.404606 38,000 299 439 0
2020-09-09 05:22:36 GMT 42.760044 25.415657 38,000 299 439 -64
2020-09-09 05:22:33 GMT 42.755585 25.426794 38,000 299 439 0
2020-09-09 05:22:29 GMT 42.752335 25.434849 38,000 299 439 0
2020-09-09 05:22:24 GMT 42.748131 25.445358 38,000 299 440 -64
2020-09-09 05:22:21 GMT 42.745468 25.451950 38,000 299 440 -128
2020-09-09 05:22:18 GMT 42.742168 25.460241 38,000 299 440 -128
2020-09-09 05:22:14 GMT 42.738144 25.470242 38,025 299 440 -128
2020-09-09 05:22:10 GMT 42.734436 25.479481 38,025 299 440 0
2020-09-09 05:22:07 GMT 42.731918 25.485785 38,000 299 437 -128
2020-09-09 05:22:03 GMT 42.728157 25.495052 38,025 299 440 128
2020-09-09 05:21:59 GMT 42.724388 25.504440 38,025 299 440 128
2020-09-09 05:21:56 GMT 42.720570 25.513830 38,025 299 440 64
2020-09-09 05:21:53 GMT 42.717911 25.520491 38,025 299 440 0
2020-09-09 05:21:48 GMT 42.712841 25.533056 38,025 299 442 128
2020-09-09 05:21:45 GMT 42.709816 25.540529 38,025 299 442 -64
2020-09-09 05:21:42 GMT 42.707291 25.546833 38,025 299 443 -192
2020-09-09 05:21:39 GMT 42.703903 25.555094 38,050 299 442 -128
2020-09-09 05:21:36 GMT 42.700737 25.562950 38,050 299 442 -64
2020-09-09 05:21:31 GMT 42.696075 25.574549 38,050 299 441 128
2020-09-09 05:21:28 GMT 42.694016 25.579605 38,050 299 441 128
2020-09-09 05:21:25 GMT 42.690681 25.587797 38,025 299 441 -64
2020-09-09 05:21:21 GMT 42.687057 25.596834 38,025 299 442 -64
2020-09-09 05:21:17 GMT 42.681885 25.609694 38,050 299 442 64
2020-09-09 05:21:14 GMT 42.679977 25.614431 38,050 299 441 64
2020-09-09 05:21:11 GMT 42.677170 25.621367 38,025 299 442 0
2020-09-09 05:21:05 GMT 42.671223 25.636150 38,025 299 440 64
2020-09-09 05:20:59 GMT 42.665405 25.650585 38,025 300 438 0
2020-09-09 05:20:55 GMT 42.661423 25.660379 38,025 299 441 0
2020-09-09 05:20:51 GMT 42.657166 25.670961 38,025 299 441 0
2020-09-09 05:20:45 GMT 42.651115 25.685907 38,025 299 441 64
2020-09-09 05:20:41 GMT 42.647873 25.693962 38,025 299 440 0
2020-09-09 05:20:35 GMT 42.641235 25.710318 38,025 299 440 -64
2020-09-09 05:20:30 GMT 42.636932 25.720867 38,025 299 440 0
2020-09-09 05:20:25 GMT 42.630890 25.735723 38,025 299 439 -64
2020-09-09 05:20:19 GMT 42.626266 25.746960 38,025 299 439 -64
2020-09-09 05:20:14 GMT 42.620636 25.760817 38,025 299 439 0
2020-09-09 05:20:10 GMT 42.617409 25.768751 38,025 300 439 -64
2020-09-09 05:20:05 GMT 42.610474 25.785616 38,050 300 438 0
2020-09-09 05:19:59 GMT 42.606422 25.795450 38,050 300 438 0
2020-09-09 05:19:54 GMT 42.600697 25.809441 38,050 300 436 0
2020-09-09 05:19:50 GMT 42.597580 25.817041 38,025 300 436 128
2020-09-09 05:19:44 GMT 42.590790 25.833664 38,025 300 436 64
2020-09-09 05:19:38 GMT 42.585522 25.846552 38,025 299 437 0
2020-09-09 05:19:34 GMT 42.580402 25.859070 38,025 299 438 0
2020-09-09 05:19:29 GMT 42.576370 25.868933 38,050 299 438 -64
2020-09-09 05:19:23 GMT 42.570694 25.882853 38,050 299 438 0
2020-09-09 05:19:16 GMT 42.564571 25.897840 38,050 299 438 64
2020-09-09 05:19:13 GMT 42.561401 25.905512 38,000 299 437 64
2020-09-09 05:19:09 GMT 42.557312 25.915533 38,050 299 439 -64
2020-09-09 05:19:02 GMT 42.549862 25.933929 38,050 299 439 0
2020-09-09 05:18:58 GMT 42.546432 25.942280 38,050 299 438 0
2020-09-09 05:18:53 GMT 42.540367 25.957115 38,025 299 438 128
2020-09-09 05:18:46 GMT 42.534622 25.971306 38,025 299 438 128
2020-09-09 05:18:42 GMT 42.530312 25.981771 38,025 299 438 64
2020-09-09 05:18:37 GMT 42.525970 25.992466 38,025 299 438 0
2020-09-09 05:18:32 GMT 42.520348 26.006172 38,025 299 438 64
2020-09-09 05:18:26 GMT 42.515648 26.017733 38,000 299 437 64
2020-09-09 05:18:22 GMT 42.509949 26.031668 38,000 299 436 0
2020-09-09 05:18:17 GMT 42.506615 26.039768 38,000 299 436 0
2020-09-09 05:18:11 GMT 42.500015 26.055763 38,000 300 434 64
2020-09-09 05:18:07 GMT 42.496994 26.063128 38,000 299 434 64
2020-09-09 05:18:02 GMT 42.491318 26.077049 38,000 299 434 0
2020-09-09 05:17:58 GMT 42.487381 26.086599 38,000 299 433 0
2020-09-09 05:17:50 GMT 42.479874 26.105015 38,000 300 432 0
2020-09-09 05:17:44 GMT 42.474701 26.117561 38,000 300 432 64
2020-09-09 05:17:40 GMT 42.469666 26.129795 38,000 300 431 64
2020-09-09 05:17:36 GMT 42.466644 26.137098 38,000 299 431 0
2020-09-09 05:17:32 GMT 42.461693 26.149185 38,000 300 432 0
2020-09-09 05:17:21 GMT 42.451870 26.173075 38,000 300 433 0
2020-09-09 05:17:17 GMT 42.447914 26.182718 38,000 300 434 -64
2020-09-09 05:17:11 GMT 42.441723 26.197729 38,000 300 433 0
2020-09-09 05:17:06 GMT 42.437439 26.208136 38,000 300 433 0
2020-09-09 05:16:59 GMT 42.429886 26.226488 38,000 300 432 64
2020-09-09 05:16:56 GMT 42.427711 26.231775 38,000 300 432 64
2020-09-09 05:16:50 GMT 42.421799 26.246082 38,000 300 432 0
2020-09-09 05:16:45 GMT 42.417023 26.257635 38,000 300 434 -64
2020-09-09 05:16:39 GMT 42.409607 26.275490 38,000 300 434 0
2020-09-09 05:16:34 GMT 42.405552 26.285236 38,000 300 433 0
2020-09-09 05:16:28 GMT 42.399490 26.299709 38,000 300 433 -64
2020-09-09 05:16:24 GMT 42.396378 26.307199 38,000 300 432 -64
2020-09-09 05:16:17 GMT 42.387814 26.327713 38,000 300 428 -64
2020-09-09 05:16:07 GMT 42.379807 26.346838 38,000 300 429 0
2020-09-09 05:16:03 GMT 42.376038 26.355818 38,000 300 428 -64
2020-09-09 05:15:57 GMT 42.369568 26.371275 38,000 300 427 0
2020-09-09 05:15:54 GMT 42.367035 26.377300 38,000 300 426 0
2020-09-09 05:15:47 GMT 42.359791 26.394526 38,000 300 424 0
2020-09-09 05:15:43 GMT 42.356297 26.402958 38,000 300 424 0
2020-09-09 05:15:38 GMT 42.351471 26.414440 38,000 300 425 64
2020-09-09 05:15:35 GMT 42.343597 26.433355 38,000 300 426 64
2020-09-09 05:15:27 GMT 42.339493 26.443197 38,000 300 430 64
2020-09-09 05:15:20 GMT 42.333675 26.457058 38,000 300 431 0
2020-09-09 05:15:16 GMT 42.329453 26.467314 38,000 300 437 0
2020-09-09 05:15:10 GMT 42.323914 26.480547 38,000 300 440 0
2020-09-09 05:15:05 GMT 42.319336 26.491720 38,000 300 441 0
2020-09-09 05:15:02 GMT 42.315720 26.500460 38,000 300 444 0
2020-09-09 05:14:55 GMT 42.308029 26.518999 38,000 300 446 -64
2020-09-09 05:14:52 GMT 42.305557 26.524990 38,000 300 449 -128
2020-09-09 05:14:45 GMT 42.296173 26.547649 38,000 300 451 0
2020-09-09 05:14:37 GMT 42.289822 26.562962 38,000 300 449 128
2020-09-09 05:14:34 GMT 42.287338 26.568935 38,000 300 448 64
2020-09-09 05:14:31 GMT 42.285072 26.574266 37,975 300 448 64
2020-09-09 05:14:24 GMT 42.277348 26.592791 38,000 300 446 -128
2020-09-09 05:14:20 GMT 42.273903 26.601093 38,000 300 446 -128
2020-09-09 05:14:15 GMT 42.267014 26.617563 38,000 300 445 64
2020-09-09 05:14:06 GMT 42.258633 26.637566 38,000 300 441 0
2020-09-09 05:14:02 GMT 42.255524 26.645029 38,000 300 439 0
2020-09-09 05:13:54 GMT 42.247692 26.663691 38,000 300 437 -64
2020-09-09 05:13:51 GMT 42.244850 26.670462 38,000 300 436 -64
2020-09-09 05:13:44 GMT 42.235031 26.693903 38,000 300 431 64
2020-09-09 05:13:41 GMT 42.235031 26.693903 38,000 300 430 0
2020-09-09 05:13:35 GMT 42.228279 26.709999 38,000 300 430 -64
2020-09-09 05:13:30 GMT 42.224350 26.719313 38,000 300 430 0
2020-09-09 05:13:22 GMT 42.216293 26.738539 38,000 300 428 0
2020-09-09 05:13:14 GMT 42.208218 26.757713 38,000 300 429 0
2020-09-09 05:13:11 GMT 42.205719 26.763569 38,000 300 429 0
2020-09-09 05:13:04 GMT 42.198349 26.781111 38,000 300 429 0
2020-09-09 05:13:01 GMT 42.195274 26.788437 38,000 300 428 0
2020-09-09 05:12:52 GMT 42.186337 26.809708 38,000 300 426 -128
2020-09-09 05:12:43 GMT 42.177979 26.829800 38,000 300 426 64
2020-09-09 05:12:40 GMT 42.175072 26.836725 38,000 300 426 64
2020-09-09 05:12:31 GMT 42.166134 26.858124 38,000 300 426 64
2020-09-09 05:12:20 GMT 42.155869 26.882545 38,000 300 428 -64
2020-09-09 05:12:10 GMT 42.146301 26.905134 38,000 300 429 0
2020-09-09 05:12:02 GMT 42.137375 26.925930 38,000 300 427 0
2020-09-09 05:11:59 GMT 42.125866 26.952848 38,000 300 427 0
2020-09-09 05:11:50 GMT 42.125866 26.952848 38,000 300 427 -64
2020-09-09 05:11:41 GMT 42.116741 26.974310 38,000 300 430 128
2020-09-09 05:11:31 GMT 42.106827 26.997751 37,975 300 436 0
2020-09-09 05:11:28 GMT 42.104233 27.003771 37,975 300 436 0
2020-09-09 05:11:20 GMT 42.095078 27.025494 37,975 300 440 0
2020-09-09 05:11:17 GMT 42.094070 27.027901 38,000 300 439 0
2020-09-09 05:11:11 GMT 42.086609 27.045343 38,000 300 438 0
2020-09-09 05:11:07 GMT 42.083454 27.052748 38,000 300 438 192
2020-09-09 05:11:00 GMT 42.076054 27.070122 38,000 300 440 -64
2020-09-09 05:10:57 GMT 42.073517 27.076118 38,000 300 440 -64
2020-09-09 05:10:48 GMT 42.063995 27.098152 37,975 300 441 -64
2020-09-09 05:10:38 GMT 42.053421 27.122871 38,000 300 442 -64
2020-09-09 05:10:31 GMT 42.047237 27.137381 38,000 300 443 -64
2020-09-09 05:10:28 GMT 42.043304 27.146593 38,000 300 443 -128
2020-09-09 05:10:23 GMT 42.037216 27.160887 38,025 300 443 -128
2020-09-09 05:10:17 GMT 42.032948 27.170914 38,025 300 443 -64
2020-09-09 05:10:09 GMT 42.024445 27.190912 38,025 300 446 -64
2020-09-09 05:10:06 GMT 42.021309 27.198317 38,025 300 445 0
2020-09-09 05:10:02 GMT 42.017075 27.208328 38,025 300 446 -64
2020-09-09 05:09:57 GMT 42.012093 27.220161 38,050 300 446 -64
2020-09-09 05:09:54 GMT 42.009155 27.227118 38,050 300 448 0
2020-09-09 05:09:51 GMT 42.006458 27.233511 38,050 300 446 0
2020-09-09 05:09:48 GMT 42.002884 27.242037 38,050 300 446 64
2020-09-09 05:09:45 GMT 41.999756 27.249479 38,050 300 446 64
2020-09-09 05:09:41 GMT 41.995743 27.259077 38,025 300 447 64
2020-09-09 05:09:36 GMT 41.989838 27.273310 38,025 299 448 0
2020-09-09 05:09:31 GMT 41.985744 27.283333 38,050 300 449 0
2020-09-09 05:09:28 GMT 41.982376 27.291475 38,050 299 450 0
2020-09-09 05:09:25 GMT 41.979736 27.297832 38,050 300 449 0
2020-09-09 05:09:15 GMT 41.969635 27.321720 38,025 303 448 64
2020-09-09 05:09:05 GMT 41.957764 27.344650 38,025 310 444 64
2020-09-09 05:08:59 GMT 41.949944 27.356787 38,000 314 442 64
2020-09-09 05:08:55 GMT 41.943558 27.365507 38,000 317 440 64
2020-09-09 05:08:48 GMT 41.933762 27.377680 38,000 318 440 64
2020-09-09 05:08:44 GMT 41.927692 27.385084 38,000 318 441 64
2020-09-09 05:08:39 GMT 41.919777 27.394730 38,000 318 441 0
2020-09-09 05:08:36 GMT 41.915169 27.400349 38,000 318 440 64
2020-09-09 05:08:33 GMT 41.912048 27.404182 38,000 318 440 -64
2020-09-09 05:08:26 GMT 41.900368 27.418427 38,025 318 440 -64
2020-09-09 05:08:23 GMT 41.896595 27.423088 38,000 318 440 -64
2020-09-09 05:08:18 GMT 41.889519 27.431711 38,000 318 441 -64
2020-09-09 05:08:14 GMT 41.881653 27.441294 38,000 318 441 -64
2020-09-09 05:08:09 GMT 41.874390 27.450171 38,025 318 441 0
2020-09-09 05:08:03 GMT 41.866241 27.460077 38,025 318 441 -64
2020-09-09 05:07:59 GMT 41.857773 27.470377 38,025 318 441 -64
2020-09-09 05:07:55 GMT 41.853058 27.476120 38,025 318 441 -64
2020-09-09 05:07:52 GMT 41.849945 27.479927 38,025 318 441 -64
2020-09-09 05:07:45 GMT 41.838593 27.493670 38,050 318 441 -64
2020-09-09 05:07:42 GMT 41.835068 27.497906 38,050 318 441 0
2020-09-09 05:07:37 GMT 41.826645 27.508142 38,050 318 441 0
2020-09-09 05:07:32 GMT 41.819550 27.516792 38,050 318 441 0
2020-09-09 05:07:23 GMT 41.804169 27.535295 38,025 318 441 0
2020-09-09 05:07:14 GMT 41.791248 27.550964 38,025 318 441 0
2020-09-09 05:07:11 GMT 41.788010 27.554834 38,025 318 441 0
2020-09-09 05:07:07 GMT 41.779404 27.565260 38,025 318 441 0
2020-09-09 05:07:02 GMT 41.773453 27.572437 38,025 318 441 0
2020-09-09 05:06:56 GMT 41.764801 27.582926 38,025 318 441 0
2020-09-09 05:06:51 GMT 41.757683 27.591524 38,025 318 441 0
2020-09-09 05:06:42 GMT 41.741318 27.611263 38,025 318 441 0
2020-09-09 05:06:38 GMT 41.737610 27.615696 38,025 318 441 0
2020-09-09 05:06:35 GMT 41.733337 27.620844 38,025 318 441 0
2020-09-09 05:06:31 GMT 41.726772 27.628763 38,025 318 441 0
2020-09-09 05:06:26 GMT 41.717693 27.639685 38,025 318 441 64
2020-09-09 05:06:22 GMT 41.713970 27.644220 38,025 318 441 64
2020-09-09 05:06:16 GMT 41.704475 27.655718 38,025 318 441 64
2020-09-09 05:06:13 GMT 41.699936 27.661201 38,025 318 441 64
2020-09-09 05:06:10 GMT 41.695629 27.666386 38,000 318 442 64
2020-09-09 05:06:07 GMT 41.690872 27.672188 38,025 318 442 0
2020-09-09 05:06:00 GMT 41.678776 27.686697 38,025 318 442 0
2020-09-09 05:05:57 GMT 41.675400 27.690790 38,025 318 442 0
2020-09-09 05:05:53 GMT 41.669174 27.698280 38,025 318 442 0
2020-09-09 05:05:50 GMT 41.664642 27.703773 38,025 318 441 64
2020-09-09 05:05:47 GMT 41.660202 27.709143 38,025 318 441 64
2020-09-09 05:05:43 GMT 41.653873 27.716717 38,000 318 441 64
2020-09-09 05:05:39 GMT 41.647934 27.723873 38,025 318 441 64
2020-09-09 05:05:35 GMT 41.641815 27.731216 38,000 318 441 64
2020-09-09 05:05:32 GMT 41.638367 27.735359 38,000 318 441 64
2020-09-09 05:05:29 GMT 41.633064 27.741756 38,000 318 441 64
2020-09-09 05:05:26 GMT 41.628361 27.747377 38,000 318 441 0
2020-09-09 05:05:22 GMT 41.622986 27.753899 38,000 318 441 64
2020-09-09 05:05:18 GMT 41.615559 27.762772 38,000 318 441 64
2020-09-09 05:05:15 GMT 41.612488 27.766476 38,000 318 440 64
2020-09-09 05:05:11 GMT 41.605453 27.774937 37,975 319 441 64
2020-09-09 05:05:08 GMT 41.600281 27.781115 37,975 318 440 64
2020-09-09 05:05:04 GMT 41.593864 27.788832 37,975 318 440 0
2020-09-09 05:05:00 GMT 41.588093 27.795731 37,975 318 440 64
2020-09-09 05:04:52 GMT 41.576454 27.809717 37,975 318 438 0
2020-09-09 05:04:48 GMT 41.570126 27.817320 37,975 318 438 64
2020-09-09 05:04:45 GMT 41.567093 27.821003 37,975 319 438 64
2020-09-09 05:04:41 GMT 41.560905 27.828432 37,975 319 438 64
2020-09-09 05:04:38 GMT 41.555054 27.835423 37,975 319 438 0
2020-09-09 05:04:31 GMT 41.545166 27.847282 37,975 318 437 0
2020-09-09 05:04:27 GMT 41.539490 27.854025 37,975 318 437 0
2020-09-09 05:04:21 GMT 41.529858 27.865608 37,975 318 436 0
2020-09-09 05:04:18 GMT 41.524567 27.871878 37,975 319 431 0
2020-09-09 05:04:12 GMT 41.516125 27.882023 37,950 319 435 0
2020-09-09 05:04:08 GMT 41.510490 27.888729 37,975 319 435 0
2020-09-09 05:03:57 GMT 41.494896 27.907381 37,975 319 434 0
2020-09-09 05:03:51 GMT 41.484001 27.920347 37,975 318 433 0
2020-09-09 05:03:48 GMT 41.477718 27.927885 37,975 318 433 -64
2020-09-09 05:03:41 GMT 41.469864 27.937296 37,975 318 433 0
2020-09-09 05:03:38 GMT 41.465561 27.942476 37,975 318 433 0
2020-09-09 05:03:35 GMT 41.462494 27.946159 37,975 319 432 0
2020-09-09 05:03:29 GMT 41.452515 27.958019 37,975 319 432 0
2020-09-09 05:03:26 GMT 41.447800 27.963638 37,975 319 431 64
2020-09-09 05:03:23 GMT 41.444046 27.968195 37,975 319 431 64
2020-09-09 05:03:19 GMT 41.437592 27.975855 37,975 319 431 0
2020-09-09 05:03:16 GMT 41.432281 27.982178 37,975 319 431 0
2020-09-09 05:03:11 GMT 41.423676 27.992414 37,975 319 431 0
2020-09-09 05:03:08 GMT 41.422119 27.994225 37,975 319 431 0
2020-09-09 05:03:05 GMT 41.417107 28.000254 37,975 319 431 0
2020-09-09 05:03:01 GMT 41.410904 28.007647 37,975 319 431 0
2020-09-09 05:02:58 GMT 41.406960 28.012325 37,975 319 431 0
2020-09-09 05:02:54 GMT 41.401382 28.019007 37,975 319 431 0
2020-09-09 05:02:51 GMT 41.396717 28.024527 37,975 319 429 0
2020-09-09 05:02:48 GMT 41.391270 28.030977 37,975 319 431 0
2020-09-09 05:02:44 GMT 41.386288 28.036922 37,975 319 431 0
2020-09-09 05:02:40 GMT 41.379227 28.045349 37,975 319 430 0
2020-09-09 05:02:35 GMT 41.371624 28.054399 37,975 319 430 0
2020-09-09 05:02:30 GMT 41.364029 28.063354 37,975 319 430 -64
2020-09-09 05:02:27 GMT 41.361328 28.066589 37,975 319 430 0
2020-09-09 05:02:24 GMT 41.356030 28.072878 37,975 319 430 0
2020-09-09 05:02:17 GMT 41.345417 28.085424 37,975 319 430 0
2020-09-09 05:02:14 GMT 41.341087 28.090605 37,975 319 429 0
2020-09-09 05:02:07 GMT 41.330612 28.103088 38,000 319 429 0
2020-09-09 05:02:03 GMT 41.325119 28.109619 37,975 319 429 0
2020-09-09 05:01:57 GMT 41.316193 28.120178 37,975 319 429 0
2020-09-09 05:01:54 GMT 41.310471 28.127014 38,000 319 429 0
2020-09-09 05:01:46 GMT 41.299934 28.139606 37,975 319 429 0
2020-09-09 05:01:43 GMT 41.295326 28.145039 38,000 319 429 0
2020-09-09 05:01:37 GMT 41.286156 28.155960 37,975 319 430 0
2020-09-09 05:01:33 GMT 41.280624 28.162476 38,000 319 429 0
2020-09-09 05:01:27 GMT 41.272476 28.172119 37,975 319 429 0
2020-09-09 05:01:23 GMT 41.265442 28.180431 37,975 319 429 -64
2020-09-09 05:01:19 GMT 41.260506 28.186298 37,975 319 429 0
2020-09-09 05:01:15 GMT 41.253429 28.194662 37,975 319 429 0
2020-09-09 05:01:12 GMT 41.250229 28.198425 37,975 319 429 0
2020-09-09 05:01:09 GMT 41.245926 28.203491 37,975 319 429 -64
2020-09-09 05:01:06 GMT 41.240982 28.209290 38,000 319 429 0
2020-09-09 05:01:03 GMT 41.235306 28.216003 38,000 319 429 0
2020-09-09 05:00:59 GMT 41.230385 28.221754 38,000 319 429 -64
2020-09-09 05:00:56 GMT 41.225639 28.227373 38,000 319 429 0
2020-09-09 05:00:52 GMT 41.220142 28.233866 37,975 319 429 0
2020-09-09 05:00:48 GMT 41.213673 28.241480 38,000 319 429 -64
2020-09-09 05:00:44 GMT 41.207886 28.248352 38,000 319 429 0
2020-09-09 05:00:41 GMT 41.204224 28.252716 38,000 319 429 0
2020-09-09 05:00:37 GMT 41.196167 28.262207 38,000 319 429 0
2020-09-09 05:00:34 GMT 41.193005 28.265886 38,000 319 429 0
2020-09-09 05:00:31 GMT 41.189514 28.270006 38,000 319 429 -64
2020-09-09 05:00:26 GMT 41.181179 28.279869 38,000 319 429 -64
2020-09-09 05:00:22 GMT 41.174244 28.288048 38,025 319 429 -128
2020-09-09 05:00:15 GMT 41.165306 28.298595 38,025 319 429 -128
2020-09-09 05:00:11 GMT 41.159409 28.305542 38,025 319 429 -192
2020-09-09 05:00:06 GMT 41.148834 28.317993 38,050 319 429 0
2020-09-09 05:00:03 GMT 41.146683 28.320557 38,050 319 429 0
2020-09-09 05:00:00 GMT 41.143524 28.324219 38,050 319 429 0
2020-09-09 04:59:54 GMT 41.133316 28.336182 38,050 319 429 0
2020-09-09 04:59:51 GMT 41.128063 28.342356 38,050 319 429 0
2020-09-09 04:59:43 GMT 41.118118 28.354065 38,050 319 429 0
2020-09-09 04:59:40 GMT 41.112610 28.360519 38,050 319 429 0
2020-09-09 04:59:34 GMT 41.098068 28.377625 38,050 319 429 0
2020-09-09 04:59:30 GMT 41.098068 28.377625 38,050 319 429 0
2020-09-09 04:59:23 GMT 41.087952 28.389526 38,050 319 429 0
2020-09-09 04:59:19 GMT 41.082733 28.395630 38,050 319 428 0
2020-09-09 04:59:16 GMT 41.077648 28.401592 38,050 319 428 0
2020-09-09 04:59:10 GMT 41.067673 28.413330 38,050 319 428 0
2020-09-09 04:58:59 GMT 41.051971 28.431763 38,050 319 427 64
2020-09-09 04:58:53 GMT 41.042316 28.443104 38,050 319 427 64
2020-09-09 04:58:48 GMT 41.036636 28.449783 38,025 319 427 64
2020-09-09 04:58:41 GMT 41.026291 28.461853 38,025 319 427 64
2020-09-09 04:58:38 GMT 41.021759 28.467224 38,025 319 426 64
2020-09-09 04:58:29 GMT 41.007019 28.484436 38,025 319 426 64
2020-09-09 04:58:21 GMT 40.995808 28.497599 38,000 319 425 64
2020-09-09 04:58:18 GMT 40.992085 28.501905 38,000 319 425 0
2020-09-09 04:58:12 GMT 40.980820 28.515078 38,000 319 425 0
2020-09-09 04:58:08 GMT 40.976536 28.520071 38,000 319 425 0
2020-09-09 04:57:57 GMT 40.960190 28.539124 38,000 319 424 64
2020-09-09 04:57:49 GMT 40.948792 28.552406 37,975 319 422 64
2020-09-09 04:57:41 GMT 40.935654 28.567749 37,975 319 422 0
2020-09-09 04:57:37 GMT 40.930496 28.573753 37,975 319 421 64
2020-09-09 04:57:30 GMT 40.920582 28.585302 37,975 319 421 0
2020-09-09 04:57:27 GMT 40.915600 28.591106 37,975 319 420 0
2020-09-09 04:57:17 GMT 40.901093 28.608032 37,975 319 420 -64
2020-09-09 04:57:08 GMT 40.888641 28.622498 37,975 319 419 0
2020-09-09 04:57:05 GMT 40.885944 28.625628 37,975 319 418 0
2020-09-09 04:57:00 GMT 40.876923 28.636169 37,975 319 417 0
2020-09-09 04:56:57 GMT 40.873981 28.639610 37,975 319 417 0
2020-09-09 04:56:54 GMT 40.868164 28.646351 37,975 319 417 0
2020-09-09 04:56:48 GMT 40.859848 28.656006 37,975 319 416 0
2020-09-09 04:56:45 GMT 40.855499 28.661072 37,975 319 416 64
2020-09-09 04:56:39 GMT 40.846889 28.671070 37,975 319 415 64
2020-09-09 04:56:34 GMT 40.839844 28.679260 37,975 319 415 64
2020-09-09 04:56:28 GMT 40.832153 28.688232 37,975 319 415 64
2020-09-09 04:56:25 GMT 40.827057 28.694103 37,975 319 415 64
2020-09-09 04:56:19 GMT 40.817234 28.705528 37,975 319 414 0
2020-09-09 04:56:14 GMT 40.811920 28.711670 37,975 319 414 0
2020-09-09 04:56:07 GMT 40.797173 28.728811 37,975 319 414 0
2020-09-09 04:56:04 GMT 40.797173 28.728811 37,975 319 414 0
2020-09-09 04:55:54 GMT 40.782509 28.745790 37,975 319 412 64
2020-09-09 04:55:48 GMT 40.772358 28.757587 37,975 319 412 64
2020-09-09 04:55:43 GMT 40.766399 28.764517 37,950 319 412 64
2020-09-09 04:55:37 GMT 40.757648 28.774691 37,950 319 411 0
2020-09-09 04:55:33 GMT 40.753040 28.780060 37,950 319 411 0
2020-09-09 04:55:27 GMT 40.743729 28.790920 37,950 319 411 -64
2020-09-09 04:55:22 GMT 40.737396 28.798286 37,950 319 411 0
2020-09-09 04:55:17 GMT 40.729156 28.807861 37,950 319 410 0
2020-09-09 04:55:13 GMT 40.723755 28.814148 37,975 319 410 -64
2020-09-09 04:55:10 GMT 40.720497 28.817949 37,975 319 410 -64
2020-09-09 04:55:07 GMT 40.714188 28.825256 37,975 319 410 -64
2020-09-09 04:55:03 GMT 40.710350 28.829748 37,975 319 409 -64
2020-09-09 04:54:59 GMT 40.704575 28.836426 37,975 319 409 -64
2020-09-09 04:54:56 GMT 40.699783 28.841984 37,975 319 408 -64
2020-09-09 04:54:53 GMT 40.695641 28.846788 37,975 319 409 -128
2020-09-09 04:54:45 GMT 40.685028 28.858961 38,000 319 408 -64
2020-09-09 04:54:41 GMT 40.679348 28.865517 38,000 319 408 -64
2020-09-09 04:54:35 GMT 40.669693 28.876648 38,000 319 408 -64
2020-09-09 04:54:32 GMT 40.665848 28.881042 38,000 319 408 0
2020-09-09 04:54:26 GMT 40.656212 28.892170 38,000 319 408 0
2020-09-09 04:54:22 GMT 40.651882 28.897163 38,000 319 408 0
2020-09-09 04:54:11 GMT 40.635681 28.915771 38,000 319 408 0
2020-09-09 04:54:01 GMT 40.621342 28.932308 38,000 319 408 0
2020-09-09 04:53:52 GMT 40.608673 28.946899 38,000 319 408 0
2020-09-09 04:53:49 GMT 40.605145 28.950972 38,000 319 408 0
2020-09-09 04:53:41 GMT 40.592945 28.965017 38,000 319 408 0
2020-09-09 04:53:38 GMT 40.589493 28.968994 38,000 319 408 0
2020-09-09 04:53:32 GMT 40.579926 28.979919 38,025 319 408 0
2020-09-09 04:53:29 GMT 40.575630 28.984867 38,000 319 408 0
2020-09-09 04:53:21 GMT 40.564774 28.997253 38,025 319 408 0
2020-09-09 04:53:18 GMT 40.561337 29.001223 38,025 319 409 0
2020-09-09 04:53:09 GMT 40.546234 29.018555 38,000 319 409 0
2020-09-09 04:52:58 GMT 40.532089 29.034790 38,000 319 409 64
2020-09-09 04:52:51 GMT 40.520462 29.048157 38,000 319 409 0
2020-09-09 04:52:48 GMT 40.517487 29.051535 38,000 319 409 0
2020-09-09 04:52:40 GMT 40.506451 29.064268 38,000 319 409 0
2020-09-09 04:52:37 GMT 40.502151 29.069153 38,000 319 409 0
2020-09-09 04:52:28 GMT 40.488438 29.084867 38,000 319 409 0
2020-09-09 04:52:17 GMT 40.473679 29.101847 38,000 319 409 -64
2020-09-09 04:52:09 GMT 40.462879 29.114206 38,000 319 408 0
2020-09-09 04:52:06 GMT 40.458736 29.119013 38,000 319 409 0
2020-09-09 04:51:56 GMT 40.443604 29.136353 38,000 319 408 0
2020-09-09 04:51:47 GMT 40.429276 29.152710 38,000 319 408 0
2020-09-09 04:51:36 GMT 40.414856 29.169189 38,000 319 408 64
2020-09-09 04:51:28 GMT 40.402222 29.183620 38,000 319 408 64
2020-09-09 04:51:16 GMT 40.385788 29.202393 38,000 319 408 0
2020-09-09 04:51:05 GMT 40.371368 29.218933 38,000 319 408 64
2020-09-09 04:50:57 GMT 40.359486 29.232433 38,000 319 408 64
2020-09-09 04:50:54 GMT 40.356400 29.235901 37,975 319 408 0
2020-09-09 04:50:47 GMT 40.344955 29.248962 37,975 319 408 0
2020-09-09 04:50:44 GMT 40.341797 29.252535 37,975 319 408 -64
2020-09-09 04:50:35 GMT 40.326622 29.269825 38,000 319 408 0
2020-09-09 04:50:24 GMT 40.312729 29.285583 38,000 319 408 0
2020-09-09 04:50:14 GMT 40.298538 29.301697 38,000 319 408 0
2020-09-09 04:50:06 GMT 40.285889 29.316080 38,000 319 408 0
2020-09-09 04:50:03 GMT 40.283096 29.319263 38,000 319 408 0
2020-09-09 04:49:54 GMT 40.268894 29.335369 38,000 319 408 0
2020-09-09 04:49:43 GMT 40.254280 29.351912 38,000 319 407 0
2020-09-09 04:49:33 GMT 40.239521 29.368702 38,000 319 408 -64
2020-09-09 04:49:23 GMT 40.225510 29.384621 38,000 320 407 0
2020-09-09 04:49:13 GMT 40.209869 29.402285 38,000 320 407 0
2020-09-09 04:49:02 GMT 40.196182 29.417786 38,000 320 408 0
2020-09-09 04:48:52 GMT 40.181797 29.433996 38,000 320 408 0
2020-09-09 04:48:41 GMT 40.166389 29.451286 38,000 320 407 0
2020-09-09 04:48:32 GMT 40.151871 29.467590 38,000 320 408 0
2020-09-09 04:48:22 GMT 40.139156 29.481874 38,000 320 408 0
2020-09-09 04:48:10 GMT 40.122253 29.500916 38,000 320 408 0
2020-09-09 04:48:00 GMT 40.107220 29.517830 38,000 320 408 0
2020-09-09 04:47:51 GMT 40.093048 29.533813 38,000 320 408 0
2020-09-09 04:47:40 GMT 40.078869 29.549726 38,000 320 409 0
2020-09-09 04:47:29 GMT 40.063507 29.567080 38,000 320 409 0
2020-09-09 04:47:20 GMT 40.049332 29.583069 38,000 319 408 0
2020-09-09 04:47:08 GMT 40.033539 29.601013 38,000 319 408 0
2020-09-09 04:46:58 GMT 40.019531 29.616821 38,000 320 409 0
2020-09-09 04:46:48 GMT 40.005249 29.632935 38,025 320 409 0
2020-09-09 04:46:38 GMT 39.989208 29.651037 38,025 320 409 -64
2020-09-09 04:46:27 GMT 39.974442 29.667664 38,025 320 409 0
2020-09-09 04:46:17 GMT 39.960953 29.682812 38,025 320 409 -64
2020-09-09 04:46:07 GMT 39.943954 29.701843 38,025 320 409 0
2020-09-09 04:45:56 GMT 39.931019 29.716331 38,025 320 409 0
2020-09-09 04:45:49 GMT 39.919785 29.728945 38,025 320 409 64
2020-09-09 04:45:46 GMT 39.915482 29.733841 38,025 320 409 64
2020-09-09 04:45:39 GMT 39.904541 29.746080 38,025 320 409 64
2020-09-09 04:45:36 GMT 39.902157 29.748718 38,025 320 409 64
2020-09-09 04:45:26 GMT 39.887169 29.765503 38,025 320 410 64
2020-09-09 04:45:19 GMT 39.877205 29.776672 38,000 320 409 64
2020-09-09 04:45:15 GMT 39.872314 29.782085 38,000 320 409 64
2020-09-09 04:45:06 GMT 39.858078 29.797968 38,000 320 409 0
2020-09-09 04:44:58 GMT 39.845970 29.811462 38,000 320 408 0
2020-09-09 04:44:55 GMT 39.842663 29.815125 38,000 320 408 0
2020-09-09 04:44:45 GMT 39.828094 29.831360 37,975 320 408 0
2020-09-09 04:44:35 GMT 39.813675 29.847404 37,975 320 408 64
2020-09-09 04:44:27 GMT 39.802277 29.860064 37,975 320 407 0
2020-09-09 04:44:24 GMT 39.798019 29.864807 37,975 320 407 0
2020-09-09 04:44:14 GMT 39.784054 29.880310 37,975 320 407 0
2020-09-09 04:44:04 GMT 39.769436 29.896545 37,975 320 406 0
2020-09-09 04:43:53 GMT 39.754532 29.913204 37,975 320 406 64
2020-09-09 04:43:45 GMT 39.742718 29.926331 37,950 320 406 64
2020-09-09 04:43:42 GMT 39.738602 29.930878 37,950 320 407 0
2020-09-09 04:43:34 GMT 39.725819 29.945068 37,950 320 406 0
2020-09-09 04:43:24 GMT 39.712223 29.960205 37,975 320 405 0
2020-09-09 04:43:21 GMT 39.708206 29.964672 37,950 320 406 0
2020-09-09 04:43:11 GMT 39.694160 29.980286 37,950 320 405 64
2020-09-09 04:43:04 GMT 39.683624 29.991959 37,950 320 405 0
2020-09-09 04:42:51 GMT 39.665543 30.012020 37,950 320 405 0
2020-09-09 04:42:41 GMT 39.651054 30.028015 37,950 320 405 0
2020-09-09 04:42:34 GMT 39.641464 30.038635 37,950 320 405 0
2020-09-09 04:42:30 GMT 39.636578 30.044128 37,950 320 405 0
2020-09-09 04:42:20 GMT 39.622284 30.059908 37,950 320 405 0
2020-09-09 04:42:12 GMT 39.609066 30.074524 37,950 320 405 0
2020-09-09 04:42:09 GMT 39.606216 30.077641 37,950 320 405 0
2020-09-09 04:42:03 GMT 39.597336 30.087494 37,950 320 405 -64
2020-09-09 04:42:00 GMT 39.592865 30.092407 37,950 320 405 -64
2020-09-09 04:41:55 GMT 39.586765 30.099182 37,975 320 405 0
2020-09-09 04:41:49 GMT 39.577698 30.109167 37,975 320 405 0
2020-09-09 04:41:39 GMT 39.563644 30.124632 37,975 320 405 0
2020-09-09 04:41:32 GMT 39.552292 30.137110 37,975 320 405 0
2020-09-09 04:41:28 GMT 39.547852 30.142006 37,975 320 405 0
2020-09-09 04:41:21 GMT 39.537552 30.153292 37,975 320 407 0
2020-09-09 04:41:17 GMT 39.531647 30.159729 37,975 320 407 0
2020-09-09 04:41:11 GMT 39.522758 30.169556 37,975 320 407 -64
2020-09-09 04:41:08 GMT 39.519058 30.173592 37,975 320 407 -64
2020-09-09 04:41:01 GMT 39.507797 30.185892 37,975 320 407 0
2020-09-09 04:40:57 GMT 39.503063 30.191101 37,975 320 407 -64
2020-09-09 04:40:47 GMT 39.488571 30.207088 37,975 320 407 0
2020-09-09 04:40:39 GMT 39.477180 30.219666 38,000 320 409 -64
2020-09-09 04:40:36 GMT 39.473557 30.223686 38,000 320 409 -64
2020-09-09 04:40:31 GMT 39.464287 30.233887 38,000 320 409 0
2020-09-09 04:40:27 GMT 39.459538 30.239075 38,000 320 409 -64
2020-09-09 04:40:22 GMT 39.446640 30.253304 38,000 320 410 -64
2020-09-09 04:40:19 GMT 39.446640 30.253304 38,000 320 410 0
2020-09-09 04:40:10 GMT 39.434402 30.266785 38,000 320 410 -64
2020-09-09 04:40:04 GMT 39.427139 30.274780 38,025 320 411 -64
2020-09-09 04:39:59 GMT 39.419411 30.283325 38,025 320 412 -64
2020-09-09 04:39:56 GMT 39.414989 30.288208 38,025 320 412 -64
2020-09-09 04:39:49 GMT 39.404747 30.299500 38,025 320 412 -64
2020-09-09 04:39:46 GMT 39.400230 30.304504 38,025 320 412 -64
2020-09-09 04:39:42 GMT 39.392624 30.312891 38,025 320 411 0
2020-09-09 04:39:38 GMT 39.389465 30.316414 38,025 320 412 0
2020-09-09 04:39:35 GMT 39.384499 30.321960 38,025 320 413 -64
2020-09-09 04:39:28 GMT 39.373810 30.333908 38,025 319 413 0
2020-09-09 04:39:24 GMT 39.369507 30.338806 38,025 319 413 0
2020-09-09 04:39:19 GMT 39.360901 30.348417 38,025 320 413 64
2020-09-09 04:39:16 GMT 39.357822 30.351868 38,025 320 414 64
2020-09-09 04:39:12 GMT 39.349594 30.360598 38,025 324 416 0
2020-09-09 04:39:07 GMT 39.342682 30.367107 38,025 326 417 0
2020-09-09 04:39:04 GMT 39.338505 30.370789 38,025 327 417 0
2020-09-09 04:38:55 GMT 39.323502 30.382214 38,025 333 421 0
2020-09-09 04:38:51 GMT 39.317825 30.386034 38,025 333 422 -64
2020-09-09 04:38:46 GMT 39.302658 30.395996 38,025 333 422 -64
2020-09-09 04:38:43 GMT 39.289856 30.404484 38,025 333 422 -64
2020-09-09 04:38:35 GMT 39.289856 30.404484 38,025 333 422 -64
2020-09-09 04:38:32 GMT 39.285202 30.407593 38,050 333 422 -64
2020-09-09 04:38:26 GMT 39.271591 30.416546 38,050 333 423 -64
2020-09-09 04:38:22 GMT 39.266396 30.419983 38,050 334 423 0
2020-09-09 04:38:16 GMT 39.256805 30.426277 38,050 334 423 0
2020-09-09 04:38:13 GMT 39.250443 30.430456 38,050 334 423 0
2020-09-09 04:38:05 GMT 39.236694 30.439453 38,050 334 423 0
2020-09-09 04:38:02 GMT 39.231991 30.442505 38,050 334 423 0
2020-09-09 04:37:56 GMT 39.221512 30.449385 38,050 333 423 0
2020-09-09 04:37:52 GMT 39.214581 30.453979 38,050 333 423 0
2020-09-09 04:37:45 GMT 39.199631 30.463774 38,050 333 423 0
2020-09-09 04:37:41 GMT 39.196053 30.466125 38,050 333 423 0
2020-09-09 04:37:34 GMT 39.182510 30.475060 38,050 333 423 0
2020-09-09 04:37:31 GMT 39.177246 30.478516 38,050 333 423 0
2020-09-09 04:37:23 GMT 39.163605 30.487427 38,050 333 423 0
2020-09-09 04:37:19 GMT 39.155685 30.492613 38,050 333 423 0
2020-09-09 04:37:13 GMT 39.146713 30.498526 38,050 333 423 64
2020-09-09 04:37:09 GMT 39.137863 30.504333 38,050 333 423 0
2020-09-09 04:37:04 GMT 39.128880 30.510254 38,050 334 423 0
2020-09-09 04:37:00 GMT 39.124550 30.513062 38,050 334 423 0
2020-09-09 04:36:57 GMT 39.118698 30.516914 38,050 334 423 0
2020-09-09 04:36:53 GMT 39.111557 30.521572 38,050 334 423 0
2020-09-09 04:36:50 GMT 39.106300 30.524963 38,050 334 423 0
2020-09-09 04:36:47 GMT 39.100937 30.528498 38,050 334 423 0
2020-09-09 04:36:42 GMT 39.091541 30.534607 38,025 334 423 0
2020-09-09 04:36:37 GMT 39.083633 30.539783 38,050 334 422 0
2020-09-09 04:36:33 GMT 39.074924 30.545471 38,025 334 421 64
2020-09-09 04:36:28 GMT 39.065643 30.551546 38,025 334 421 64
2020-09-09 04:36:24 GMT 39.059795 30.555359 38,025 334 421 64
2020-09-09 04:36:17 GMT 39.048111 30.562927 38,025 334 421 64
2020-09-09 04:36:13 GMT 39.041656 30.567129 38,025 334 421 64
2020-09-09 04:36:10 GMT 39.037445 30.569876 38,025 334 420 64
2020-09-09 04:36:07 GMT 39.030624 30.574293 38,025 334 420 64
2020-09-09 04:36:02 GMT 39.022842 30.579309 38,025 334 420 64
2020-09-09 04:35:56 GMT 39.013046 30.585640 38,000 334 419 64
2020-09-09 04:35:52 GMT 39.005905 30.590296 38,000 334 419 64
2020-09-09 04:35:47 GMT 38.996063 30.596624 38,000 334 419 64
2020-09-09 04:35:44 GMT 38.991596 30.599548 38,000 334 419 0
2020-09-09 04:35:41 GMT 38.985638 30.603394 38,000 334 419 0
2020-09-09 04:35:36 GMT 38.977444 30.608704 38,000 334 418 0
2020-09-09 04:35:33 GMT 38.972580 30.611851 38,000 334 417 0
2020-09-09 04:35:30 GMT 38.967667 30.615051 38,000 333 416 0
2020-09-09 04:35:26 GMT 38.959946 30.620090 38,000 333 415 0
2020-09-09 04:35:22 GMT 38.952988 30.624687 38,000 333 415 0
2020-09-09 04:35:16 GMT 38.942810 30.631409 38,000 333 414 0
2020-09-09 04:35:12 GMT 38.935455 30.636292 38,000 333 413 0
2020-09-09 04:35:07 GMT 38.927868 30.641235 38,000 334 414 0
2020-09-09 04:35:03 GMT 38.920944 30.645645 38,000 335 414 0
2020-09-09 04:35:00 GMT 38.909756 30.652344 38,000 336 415 0
2020-09-09 04:34:56 GMT 38.909756 30.652344 38,000 336 415 0
2020-09-09 04:34:51 GMT 38.899612 30.658066 38,000 337 415 0
2020-09-09 04:34:46 GMT 38.890762 30.662781 38,000 338 416 0
2020-09-09 04:34:39 GMT 38.878784 30.668814 38,000 340 418 64
2020-09-09 04:34:31 GMT 38.863037 30.676037 38,000 342 419 64
2020-09-09 04:34:25 GMT 38.853706 30.679932 38,000 343 421 0
2020-09-09 04:34:21 GMT 38.845093 30.683380 38,000 344 422 0
2020-09-09 04:34:18 GMT 38.839512 30.685486 38,000 344 423 0
2020-09-09 04:34:15 GMT 38.834763 30.687195 38,000 345 424 0
2020-09-09 04:34:11 GMT 38.826462 30.690069 38,000 346 426 0
2020-09-09 04:34:08 GMT 38.818653 30.692566 38,000 347 427 0
2020-09-09 04:34:03 GMT 38.811905 30.694607 38,000 348 428 0
2020-09-09 04:34:00 GMT 38.803898 30.696777 38,000 349 429 0
2020-09-09 04:33:53 GMT 38.792912 30.699585 38,000 350 430 0
2020-09-09 04:33:50 GMT 38.785835 30.701172 38,000 351 430 64
2020-09-09 04:33:47 GMT 38.780666 30.702271 38,000 352 430 64
2020-09-09 04:33:39 GMT 38.764141 30.705261 38,000 353 431 64
2020-09-09 04:33:34 GMT 38.754272 30.706846 37,975 353 431 64
2020-09-09 04:33:27 GMT 38.737976 30.709534 37,975 353 432 192
2020-09-09 04:33:23 GMT 38.732719 30.710388 37,950 353 433 320
2020-09-09 04:33:19 GMT 38.725597 30.711548 37,925 353 434 640
2020-09-09 04:33:16 GMT 38.719406 30.712524 37,900 353 434 832
2020-09-09 04:33:12 GMT 38.710838 30.713928 37,825 353 434 1088
2020-09-09 04:33:08 GMT 38.702972 30.715271 37,650 353 434 768
2020-09-09 04:33:03 GMT 38.692886 30.716938 37,650 353 435 960
2020-09-09 04:32:57 GMT 38.681213 30.718908 37,575 353 434 768
2020-09-09 04:32:53 GMT 38.672340 30.720398 37,525 353 434 512
2020-09-09 04:32:48 GMT 38.661301 30.722252 37,500 353 432 192
2020-09-09 04:32:42 GMT 38.650555 30.724060 37,475 353 431 128
2020-09-09 04:32:36 GMT 38.639923 30.725895 37,425 353 429 1152
2020-09-09 04:32:26 GMT 38.620056 30.729237 37,300 353 429 1280
2020-09-09 04:32:19 GMT 38.606701 30.731445 37,125 353 430 1408
2020-09-09 04:32:16 GMT 38.583195 30.735413 36,675 353 430 960
2020-09-09 04:32:08 GMT 38.583195 30.735413 36,900 353 431 960
2020-09-09 04:32:05 GMT 38.577209 30.736462 36,850 353 431 896
2020-09-09 04:32:01 GMT 38.570251 30.737610 36,800 353 431 768
2020-09-09 04:31:56 GMT 38.559494 30.739449 36,725 353 431 832
2020-09-09 04:31:47 GMT 38.541992 30.742371 36,550 353 430 1024
2020-09-09 04:31:44 GMT 38.537106 30.743164 36,550 353 431 1216
2020-09-09 04:31:38 GMT 38.523834 30.745359 36,400 353 431 1344
2020-09-09 04:31:35 GMT 38.517471 30.746433 36,350 353 431 1408
2020-09-09 04:31:27 GMT 38.503418 30.748762 36,100 353 433 1600
2020-09-09 04:31:24 GMT 38.497910 30.749634 36,100 353 433 1600
2020-09-09 04:31:20 GMT 38.488415 30.751221 35,975 353 435 1536
2020-09-09 04:31:13 GMT 38.474121 30.753597 35,800 353 436 1344
2020-09-09 04:31:09 GMT 38.466301 30.754883 35,725 353 436 1280
2020-09-09 04:31:03 GMT 38.455170 30.756763 35,600 353 437 1216
2020-09-09 04:30:58 GMT 38.445557 30.758375 35,500 353 437 1152
2020-09-09 04:30:54 GMT 38.436584 30.759869 35,375 353 437 960
2020-09-09 04:30:51 GMT 38.429672 30.761002 35,375 353 437 960
2020-09-09 04:30:48 GMT 38.425846 30.761658 35,350 353 437 768
2020-09-09 04:30:44 GMT 38.416397 30.763245 35,275 353 437 576
2020-09-09 04:30:36 GMT 38.399078 30.766077 35,200 353 435 512
2020-09-09 04:30:33 GMT 38.392639 30.767096 35,150 353 435 512
2020-09-09 04:30:26 GMT 38.380318 30.769123 35,075 353 434 1024
2020-09-09 04:30:22 GMT 38.373138 30.770250 35,000 353 434 1536
2020-09-09 04:30:16 GMT 38.360394 30.772287 34,750 353 437 2944
2020-09-09 04:30:11 GMT 38.349884 30.773991 34,575 353 440 3328
2020-09-09 04:30:06 GMT 38.339951 30.775627 34,200 353 446 3392
2020-09-09 04:30:01 GMT 38.327530 30.777660 33,875 353 450 3200
2020-09-09 04:29:56 GMT 38.317154 30.779425 33,650 353 453 2816
2020-09-09 04:29:51 GMT 38.309559 30.780706 33,600 353 454 2496
2020-09-09 04:29:45 GMT 38.296848 30.782797 33,325 353 457 1536
2020-09-09 04:29:41 GMT 38.286423 30.784527 33,225 353 457 1088
2020-09-09 04:29:36 GMT 38.277832 30.785971 33,150 353 456 832
2020-09-09 04:29:30 GMT 38.264496 30.788170 33,050 353 455 960
2020-09-09 04:29:25 GMT 38.255234 30.789661 32,925 353 454 1216
2020-09-09 04:29:20 GMT 38.245644 30.791216 32,875 353 453 1280
2020-09-09 04:29:16 GMT 38.235397 30.792925 32,750 353 453 1536
2020-09-09 04:29:10 GMT 38.224091 30.794794 32,625 353 453 1536
2020-09-09 04:28:59 GMT 38.198044 30.799120 32,300 353 452 1408
2020-09-09 04:28:54 GMT 38.190216 30.800406 32,225 353 453 1344
2020-09-09 04:28:51 GMT 38.182892 30.801689 32,100 353 453 1152
2020-09-09 04:28:47 GMT 38.175255 30.802977 32,075 353 451 1024
2020-09-09 04:28:43 GMT 38.168507 30.804171 32,025 353 451 1024
2020-09-09 04:28:40 GMT 38.161697 30.805313 31,950 353 450 1152
2020-09-09 04:28:36 GMT 38.153275 30.806658 31,875 354 450 1152
2020-09-09 04:28:31 GMT 38.142994 30.808111 31,750 355 449 1280
2020-09-09 04:28:27 GMT 38.132446 30.809345 31,650 356 449 1344
2020-09-09 04:28:23 GMT 38.126678 30.809872 31,525 357 448 1408
2020-09-09 04:28:19 GMT 38.119125 30.810514 31,500 358 448 1472
2020-09-09 04:28:16 GMT 38.111755 30.810982 31,425 358 448 1536
2020-09-09 04:28:09 GMT 38.096329 30.811625 31,175 359 448 1408
2020-09-09 04:28:06 GMT 38.090343 30.811874 31,150 359 448 1408
2020-09-09 04:27:59 GMT 38.075867 30.812384 31,000 359 446 1280
2020-09-09 04:27:55 GMT 38.068817 30.812618 30,925 359 445 1216
2020-09-09 04:27:49 GMT 38.055431 30.813128 30,800 359 443 1152
2020-09-09 04:27:45 GMT 38.046936 30.813377 30,725 359 443 1152
2020-09-09 04:27:39 GMT 38.034164 30.813845 30,600 359 441 1344
2020-09-09 04:27:34 GMT 38.026150 30.814142 30,500 359 440 1472
2020-09-09 04:27:27 GMT 38.011112 30.814680 30,325 359 439 1536
2020-09-09 04:27:24 GMT 38.005665 30.814859 30,250 359 438 1536
2020-09-09 04:27:21 GMT 37.998047 30.815130 30,150 359 437 1472
2020-09-09 04:27:15 GMT 37.984726 30.815657 30,000 359 436 1536
2020-09-09 04:27:08 GMT 37.971775 30.816113 29,825 359 435 1536
2020-09-09 04:27:05 GMT 37.966278 30.816299 29,700 359 434 1472
2020-09-09 04:27:00 GMT 37.955902 30.816710 29,625 359 433 1472
2020-09-09 04:26:57 GMT 37.948059 30.817001 29,525 359 433 1472
2020-09-09 04:26:54 GMT 37.944031 30.817127 29,475 359 432 1472
2020-09-09 04:26:50 GMT 37.934326 30.817469 29,375 359 431 1408
2020-09-09 04:26:44 GMT 37.922836 30.817879 29,225 359 429 1344
2020-09-09 04:26:34 GMT 37.904480 30.818520 28,950 359 427 1536
2020-09-09 04:26:27 GMT 37.888504 30.819105 28,800 359 424 1600
2020-09-09 04:26:23 GMT 37.882629 30.819338 28,725 359 425 1600
2020-09-09 04:26:14 GMT 37.864929 30.820040 28,500 359 423 1472
2020-09-09 04:26:06 GMT 37.848816 30.820623 28,300 359 420 1344
2020-09-09 04:26:01 GMT 37.840118 30.820974 28,200 359 419 1344
2020-09-09 04:25:53 GMT 37.824673 30.821547 28,025 359 416 1280
2020-09-09 04:25:46 GMT 37.810684 30.822027 27,850 359 413 1472
2020-09-09 04:25:43 GMT 37.804871 30.822260 27,800 359 413 1472
2020-09-09 04:25:33 GMT 37.785381 30.822979 27,475 359 411 2176
2020-09-09 04:25:23 GMT 37.766464 30.823721 27,100 359 411 2112
2020-09-09 04:25:12 GMT 37.746510 30.824472 26,300 359 410 2112
2020-09-09 04:25:05 GMT 37.733196 30.824949 26,500 359 409 1856
2020-09-09 04:25:01 GMT 37.726494 30.825190 26,400 359 408 1536
2020-09-09 04:24:55 GMT 37.712128 30.825708 26,175 359 405 1728
2020-09-09 04:24:52 GMT 37.707966 30.825905 26,100 359 404 2112
2020-09-09 04:24:44 GMT 37.693085 30.826410 25,775 359 403 2752
2020-09-09 04:24:41 GMT 37.688416 30.826586 25,675 359 404 2944
2020-09-09 04:24:37 GMT 37.679474 30.826860 25,425 359 406 3200
2020-09-09 04:24:32 GMT 37.671700 30.827099 25,200 359 406 3200
2020-09-09 04:24:29 GMT 37.665802 30.827345 25,050 359 407 2752
2020-09-09 04:24:25 GMT 37.655731 30.827696 24,800 359 406 2752
2020-09-09 04:24:21 GMT 37.649635 30.827875 24,650 359 406 2752
2020-09-09 04:24:18 GMT 37.645569 30.827988 24,550 359 406 2688
2020-09-09 04:24:12 GMT 37.634354 30.828396 24,350 359 406 2560
2020-09-09 04:24:08 GMT 37.625610 30.828690 24,125 359 405 2304
2020-09-09 04:24:03 GMT 37.614899 30.829039 23,925 359 402 1664
2020-09-09 04:23:59 GMT 37.607273 30.829309 23,825 359 400 1408
2020-09-09 04:23:51 GMT 37.595169 30.829727 23,650 359 397 1664
2020-09-09 04:23:48 GMT 37.588898 30.829916 23,550 359 396 1984
2020-09-09 04:23:40 GMT 37.574406 30.830442 23,325 359 394 2368
2020-09-09 04:23:37 GMT 37.569351 30.830618 23,150 359 393 2432
2020-09-09 04:23:32 GMT 37.557953 30.831026 22,875 359 391 2496
2020-09-09 04:23:28 GMT 37.550858 30.831318 22,700 359 390 2560
2020-09-09 04:23:20 GMT 37.537674 30.831785 22,400 359 389 2624
2020-09-09 04:23:17 GMT 37.532833 30.831936 22,275 359 388 2624
2020-09-09 04:23:09 GMT 37.519180 30.832430 21,975 359 387 2752
2020-09-09 04:23:06 GMT 37.513596 30.832603 21,800 359 387 2752
2020-09-09 04:23:02 GMT 37.503525 30.832954 21,525 359 386 2752
2020-09-09 04:22:59 GMT 37.500961 30.833071 21,475 359 385 2688
2020-09-09 04:22:56 GMT 37.495777 30.833248 21,325 359 385 2752
2020-09-09 04:22:50 GMT 37.477295 30.833891 20,975 359 383 2816
2020-09-09 04:22:47 GMT 37.477295 30.833891 20,850 359 383 2880
2020-09-09 04:22:39 GMT 37.464935 30.834299 20,575 359 382 2880
2020-09-09 04:22:36 GMT 37.459328 30.834503 20,375 359 382 2816
2020-09-09 04:22:29 GMT 37.448109 30.834862 20,075 359 381 2752
2020-09-09 04:22:26 GMT 37.441177 30.835117 19,900 359 380 2752
2020-09-09 04:22:19 GMT 37.428635 30.835526 19,550 359 379 2816
2020-09-09 04:22:16 GMT 37.422787 30.835756 19,400 359 378 2688
2020-09-09 04:22:08 GMT 37.410122 30.836176 19,100 359 375 2432
2020-09-09 04:22:05 GMT 37.404861 30.836353 18,975 359 374 2432
2020-09-09 04:21:58 GMT 37.392712 30.836773 18,650 359 371 2944
2020-09-09 04:21:55 GMT 37.387684 30.836950 18,500 359 370 3008
2020-09-09 04:21:47 GMT 37.374977 30.837370 18,125 359 369 3200
2020-09-09 04:21:44 GMT 37.369583 30.837570 17,950 359 369 3200
2020-09-09 04:21:39 GMT 37.359383 30.837908 17,650 359 368 2944
2020-09-09 04:21:35 GMT 37.352631 30.838144 17,475 359 367 2752
2020-09-09 04:21:27 GMT 37.340340 30.838564 17,150 359 364 2560
2020-09-09 04:21:24 GMT 37.335220 30.838741 17,025 359 362 2560
2020-09-09 04:21:17 GMT 37.323116 30.839161 16,700 359 360 2688
2020-09-09 04:21:14 GMT 37.317951 30.839340 16,550 359 359 2880
2020-09-09 04:21:07 GMT 37.305614 30.839817 16,175 359 357 3264
2020-09-09 04:21:04 GMT 37.300278 30.839968 16,000 359 357 3328
2020-09-09 04:20:56 GMT 37.289368 30.840355 15,625 359 357 3392
2020-09-09 04:20:53 GMT 37.283478 30.840551 15,425 359 357 3328
2020-09-09 04:20:45 GMT 37.271301 30.841019 15,050 359 356 2752
2020-09-09 04:20:42 GMT 37.266220 30.841194 14,925 359 354 2432
2020-09-09 04:20:36 GMT 37.255196 30.841549 14,650 359 350 2560
2020-09-09 04:20:33 GMT 37.250061 30.841780 14,500 359 349 2752
2020-09-09 04:20:25 GMT 37.238766 30.842146 14,150 359 346 3456
2020-09-09 04:20:22 GMT 37.232986 30.842304 13,925 359 346 3904
2020-09-09 04:20:15 GMT 37.222145 30.842684 13,500 359 347 3392
2020-09-09 04:20:11 GMT 37.216232 30.842890 13,325 359 346 2816
2020-09-09 04:20:05 GMT 37.206272 30.843222 13,050 359 342 2432
2020-09-09 04:20:02 GMT 37.199478 30.843414 12,875 359 339 2944
2020-09-09 04:19:54 GMT 37.188766 30.843765 12,500 359 337 3584
2020-09-09 04:19:50 GMT 37.182953 30.843941 12,275 359 336 3456
2020-09-09 04:19:45 GMT 37.173569 30.844233 11,925 359 334 3456
2020-09-09 04:19:40 GMT 37.167252 30.844467 11,700 359 332 3392
2020-09-09 04:19:34 GMT 37.157112 30.844772 11,350 359 329 2944
2020-09-09 04:19:31 GMT 37.151596 30.844934 11,200 359 327 2752
2020-09-09 04:19:23 GMT 37.141434 30.845285 10,925 359 320 1856
2020-09-09 04:19:20 GMT 37.135986 30.845461 10,825 359 314 1472
2020-09-09 04:19:14 GMT 37.126556 30.845812 10,675 359 304 1344
2020-09-09 04:19:09 GMT 37.121548 30.845966 10,575 359 298 1536
2020-09-09 04:19:03 GMT 37.112595 30.846336 10,350 359 289 2944
2020-09-09 04:19:00 GMT 37.107376 30.846512 10,150 359 287 3264
2020-09-09 04:18:53 GMT 37.098736 30.846863 9,775 359 284 3520
2020-09-09 04:18:49 GMT 37.094147 30.847038 9,575 358 283 3520
2020-09-09 04:18:43 GMT 37.084534 30.847506 9,125 358 281 3392
2020-09-09 04:18:39 GMT 37.080906 30.847639 8,975 358 279 3392
2020-09-09 04:18:31 GMT 37.071121 30.848148 8,550 358 276 3392
2020-09-09 04:18:28 GMT 37.067322 30.848324 8,375 358 276 3456
2020-09-09 04:18:22 GMT 37.058167 30.848791 7,925 358 274 3968
2020-09-09 04:18:19 GMT 37.054047 30.849012 7,700 358 274 4096
2020-09-09 04:18:11 GMT 37.045120 30.849491 7,225 358 275 4096
2020-09-09 04:18:04 GMT 37.037052 30.849909 6,800 358 276 3968
2020-09-09 04:17:57 GMT 37.027790 30.850445 6,350 358 275 3840
2020-09-09 04:17:48 GMT 37.014801 30.850983 5,775 359 273 3008
2020-09-09 04:17:37 GMT 37.002045 30.851162 5,300 1 265 2560
2020-09-09 04:17:26 GMT 36.989548 30.849083 4,925 18 248 2496
2020-09-09 04:17:15 GMT 36.977829 30.843649 4,325 21 244 3712
2020-09-09 04:17:09 GMT 36.970871 30.840200 3,950 21 241 2944
2020-09-09 04:17:03 GMT 36.964966 30.837278 3,700 21 231 1920
2020-09-09 04:16:58 GMT 36.959930 30.834826 3,550 21 228 1856
2020-09-09 04:16:55 GMT 36.957413 30.833538 3,475 21 223 1856
2020-09-09 04:16:45 GMT 36.947754 30.828747 3,125 21 205 2240
2020-09-09 04:16:34 GMT 36.938038 30.823935 2,775 21 193 1856
2020-09-09 04:16:28 GMT 36.932510 30.821266 2,500 21 181 1984
2020-09-09 04:16:25 GMT 36.930309 30.820232 2,425 20 174 1792
2020-09-09 04:16:17 GMT 36.924820 30.817701 2,200 19 165 1792
2020-09-09 04:16:14 GMT 36.923218 30.817001 1,975 17 155 1792
2020-09-09 04:16:04 GMT 36.916214 30.814138 900 16 149 2048
2020-09-09 04:15:54 GMT 36.909393 30.811800 1,475 12 137 1792
2020-09-09 04:15:43 GMT 36.902843 30.810263 1,025 7 133 2944
2020-09-09 04:15:40 GMT 36.901108 30.809988 900 6 134 2944
2020-09-09 04:15:33 GMT 36.896713 30.809345 575 5 137 2880
2020-09-09 04:15:16 GMT 36.885944 30.807934 300 6 90 128
2020-09-09 04:15:11 GMT 36.884159 30.807667 0 6 80 128
2020-09-09 04:15:02 GMT 36.881882 30.807344 0 5 21
2020-09-09 04:14:59 GMT 36.881687 30.807316 0 5 11
2020-09-09 04:14:51 GMT 36.881493 30.807301 0 5 0
2020-09-09 04:14:40 GMT 36.881489 30.807291 0 5 0
2020-09-09 04:14:30 GMT 36.881401 30.807285 0 5 7
2020-09-09 04:14:20 GMT 36.881115 30.807201 0 73 9
2020-09-09 04:14:17 GMT 36.881081 30.807068 0 84 10
2020-09-09 04:14:06 GMT 36.881081 30.806366 0 95 14
2020-09-09 04:13:56 GMT 36.881138 30.805664 0 104 12
2020-09-09 04:13:48 GMT 36.881413 30.805065 0 160 9
2020-09-09 04:13:38 GMT 36.881687 30.804962 0 182 11
2020-09-09 04:13:35 GMT 36.881790 30.804962 0 185 10
2020-09-09 04:13:27 GMT 36.882267 30.805021 0 185 20
2020-09-09 04:13:14 GMT 36.883606 30.805201 0 185 25
2020-09-09 04:13:06 GMT 36.884838 30.805380 0 185 23
2020-09-09 04:12:54 GMT 36.886047 30.805548 0 185 31
2020-09-09 04:12:42 GMT 36.887630 30.805754 0 185 28
2020-09-09 04:12:34 GMT 36.888668 30.805912 0 185 26

Making use of Plane Finder data

You are free to use the raw flight data, aircraft information and images provided in this report for your own purposes provided the data is correctly attributed to Plane Finder. We ask that you please credit Plane Finder and link to planefinder.net in close proximity to the content.

Optionally one of the following logos (no smaller then 150x24px) can be used and must link to planefinder.net

Embedding the Plane Finder map

You are welcome to embed the Plane Finder playback map on your website to offer visitors a more interactive experience. We suggest using the following HTML code:

<iframe src="//planefinder.net/data/report/PC7345-TC-NBF-7700-squawk-2020-09-09/map" width="800" height="600" seamless="seamless"></iframe>

Where our data comes from

Plane Finder has a global network of data feeds and antenna radars that receive data broadcast directly from aircraft. The primary technologies used are ADS-B and MLAT. We also show feeds from the FAA and a FLARM glider feed.

Click here to find out more about the Plane Finder network.

How we collect our data